<?xml version="1.0" encoding="UTF-8" standalone="no" ?>
<gpx xmlns="http://www.topografix.com/GPX/1/1" xmlns:xsi="http://www.w3.org/2001/XMLSchema-instance" xsi:schemaLocation="http://www.topografix.com/GPX/1/1 http://www.topografix.com/GPX/1/1/gpx.xsd" version="1.1" creator="VisuGPX - https://www.visugpx.com">
  <metadata>
    <name>Equistival 2024</name>
    <desc><![CDATA[Equestival 2024]]></desc>
  </metadata>
  <wpt lat="45.33539" lon="4.42072">
    <ele>930.4</ele>
    <name><![CDATA[Point de pique-nique]]></name>
    <desc><![CDATA[Dans un joli parc avec tables et bancs, de nombreux arbres pour attacher les chevaux avec herbe à brouter.]]></desc>
  </wpt>
  <trk>
    <name><![CDATA[Saint Romain des Atheux 17km_1]]></name>
    <extensions>
      <line xmlns="http://www.topografix.com/GPX/gpx_style/0/2">
        <color>0000FF</color>
        <width>4</width>
      </line>
    </extensions>
    <trkseg>
      <trkpt lat="45.35807" lon="4.37689">
        <ele>880</ele>
        <time>2024-07-15T12:34:22Z</time>
      </trkpt>
      <trkpt lat="45.35806" lon="4.37691">
        <ele>880</ele>
        <time>2024-07-15T12:34:21Z</time>
      </trkpt>
      <trkpt lat="45.35805" lon="4.37622">
        <ele>877</ele>
        <time>2024-07-15T12:33:42Z</time>
      </trkpt>
      <trkpt lat="45.358" lon="4.37592">
        <ele>876</ele>
        <time>2024-07-15T12:33:24Z</time>
      </trkpt>
      <trkpt lat="45.35792" lon="4.37569">
        <ele>875</ele>
        <time>2024-07-15T12:33:10Z</time>
      </trkpt>
      <trkpt lat="45.3578" lon="4.37548">
        <ele>874</ele>
        <time>2024-07-15T12:32:55Z</time>
      </trkpt>
      <trkpt lat="45.35771" lon="4.37521">
        <ele>872</ele>
        <time>2024-07-15T12:32:38Z</time>
      </trkpt>
      <trkpt lat="45.35766" lon="4.3749">
        <ele>870</ele>
        <time>2024-07-15T12:32:20Z</time>
      </trkpt>
      <trkpt lat="45.35764" lon="4.37438">
        <ele>868</ele>
        <time>2024-07-15T12:31:51Z</time>
      </trkpt>
      <trkpt lat="45.35758" lon="4.37427">
        <ele>868</ele>
        <time>2024-07-15T12:31:43Z</time>
      </trkpt>
      <trkpt lat="45.357" lon="4.37329">
        <ele>859</ele>
        <time>2024-07-15T12:30:31Z</time>
      </trkpt>
      <trkpt lat="45.35701" lon="4.37293">
        <ele>860</ele>
        <time>2024-07-15T12:30:10Z</time>
      </trkpt>
      <trkpt lat="45.35699" lon="4.37258">
        <ele>859</ele>
        <time>2024-07-15T12:29:51Z</time>
      </trkpt>
      <trkpt lat="45.35689" lon="4.37227">
        <ele>858</ele>
        <time>2024-07-15T12:29:32Z</time>
      </trkpt>
      <trkpt lat="45.35661" lon="4.37134">
        <ele>853</ele>
        <time>2024-07-15T12:28:35Z</time>
      </trkpt>
      <trkpt lat="45.35645" lon="4.37111">
        <ele>851</ele>
        <time>2024-07-15T12:28:16Z</time>
      </trkpt>
      <trkpt lat="45.35631" lon="4.37095">
        <ele>848</ele>
        <time>2024-07-15T12:28:02Z</time>
      </trkpt>
      <trkpt lat="45.35622" lon="4.37072">
        <ele>847</ele>
        <time>2024-07-15T12:27:47Z</time>
      </trkpt>
      <trkpt lat="45.35617" lon="4.36963">
        <ele>845</ele>
        <time>2024-07-15T12:26:46Z</time>
      </trkpt>
      <trkpt lat="45.35622" lon="4.36814">
        <ele>835</ele>
        <time>2024-07-15T12:25:22Z</time>
      </trkpt>
      <trkpt lat="45.35629" lon="4.36754">
        <ele>828</ele>
        <time>2024-07-15T12:24:48Z</time>
      </trkpt>
      <trkpt lat="45.3564" lon="4.36713">
        <ele>824</ele>
        <time>2024-07-15T12:24:23Z</time>
      </trkpt>
      <trkpt lat="45.35644" lon="4.36697">
        <ele>822</ele>
        <time>2024-07-15T12:24:13Z</time>
      </trkpt>
      <trkpt lat="45.35574" lon="4.36728">
        <ele>813</ele>
        <time>2024-07-15T12:23:15Z</time>
      </trkpt>
      <trkpt lat="45.3557" lon="4.36721">
        <ele>811</ele>
        <time>2024-07-15T12:23:10Z</time>
      </trkpt>
      <trkpt lat="45.35567" lon="4.36703">
        <ele>808</ele>
        <time>2024-07-15T12:22:59Z</time>
      </trkpt>
      <trkpt lat="45.35606" lon="4.3662">
        <ele>802</ele>
        <time>2024-07-15T12:22:03Z</time>
      </trkpt>
      <trkpt lat="45.356" lon="4.36606">
        <ele>799</ele>
        <time>2024-07-15T12:21:54Z</time>
      </trkpt>
      <trkpt lat="45.35584" lon="4.36612">
        <ele>797</ele>
        <time>2024-07-15T12:21:40Z</time>
      </trkpt>
      <trkpt lat="45.35545" lon="4.36654">
        <ele>797</ele>
        <time>2024-07-15T12:21:01Z</time>
      </trkpt>
      <trkpt lat="45.35531" lon="4.36681">
        <ele>797</ele>
        <time>2024-07-15T12:20:42Z</time>
      </trkpt>
      <trkpt lat="45.3552" lon="4.36713">
        <ele>797</ele>
        <time>2024-07-15T12:20:22Z</time>
      </trkpt>
      <trkpt lat="45.35516" lon="4.36709">
        <ele>796</ele>
        <time>2024-07-15T12:20:19Z</time>
      </trkpt>
      <trkpt lat="45.35517" lon="4.36682">
        <ele>794</ele>
        <time>2024-07-15T12:20:03Z</time>
      </trkpt>
      <trkpt lat="45.35538" lon="4.36576">
        <ele>791</ele>
        <time>2024-07-15T12:19:01Z</time>
      </trkpt>
      <trkpt lat="45.35538" lon="4.36527">
        <ele>790</ele>
        <time>2024-07-15T12:18:34Z</time>
      </trkpt>
      <trkpt lat="45.35547" lon="4.36504">
        <ele>788</ele>
        <time>2024-07-15T12:18:19Z</time>
      </trkpt>
      <trkpt lat="45.35549" lon="4.36498">
        <ele>787</ele>
        <time>2024-07-15T12:18:15Z</time>
      </trkpt>
      <trkpt lat="45.35565" lon="4.36478">
        <ele>787</ele>
        <time>2024-07-15T12:17:58Z</time>
      </trkpt>
      <trkpt lat="45.35582" lon="4.36429">
        <ele>793</ele>
        <time>2024-07-15T12:17:27Z</time>
      </trkpt>
      <trkpt lat="45.35609" lon="4.36412">
        <ele>791</ele>
        <time>2024-07-15T12:17:04Z</time>
      </trkpt>
      <trkpt lat="45.35622" lon="4.364">
        <ele>791</ele>
        <time>2024-07-15T12:16:51Z</time>
      </trkpt>
      <trkpt lat="45.35625" lon="4.36376">
        <ele>796</ele>
        <time>2024-07-15T12:16:38Z</time>
      </trkpt>
      <trkpt lat="45.35622" lon="4.364">
        <ele>791</ele>
        <time>2024-07-15T12:16:24Z</time>
      </trkpt>
      <trkpt lat="45.35641" lon="4.36384">
        <ele>791</ele>
        <time>2024-07-15T12:16:06Z</time>
      </trkpt>
      <trkpt lat="45.35663" lon="4.36347">
        <ele>795</ele>
        <time>2024-07-15T12:15:39Z</time>
      </trkpt>
      <trkpt lat="45.35683" lon="4.36323">
        <ele>799</ele>
        <time>2024-07-15T12:15:18Z</time>
      </trkpt>
      <trkpt lat="45.35703" lon="4.36309">
        <ele>802</ele>
        <time>2024-07-15T12:15:00Z</time>
      </trkpt>
      <trkpt lat="45.35772" lon="4.36325">
        <ele>794</ele>
        <time>2024-07-15T12:14:04Z</time>
      </trkpt>
      <trkpt lat="45.35789" lon="4.36317">
        <ele>796</ele>
        <time>2024-07-15T12:13:50Z</time>
      </trkpt>
      <trkpt lat="45.35801" lon="4.36311">
        <ele>797</ele>
        <time>2024-07-15T12:13:40Z</time>
      </trkpt>
      <trkpt lat="45.3583" lon="4.36283">
        <ele>801</ele>
        <time>2024-07-15T12:13:12Z</time>
      </trkpt>
      <trkpt lat="45.35839" lon="4.36259">
        <ele>804</ele>
        <time>2024-07-15T12:12:56Z</time>
      </trkpt>
      <trkpt lat="45.35824" lon="4.3624">
        <ele>807</ele>
        <time>2024-07-15T12:12:40Z</time>
      </trkpt>
      <trkpt lat="45.3576" lon="4.36198">
        <ele>820</ele>
        <time>2024-07-15T12:11:44Z</time>
      </trkpt>
      <trkpt lat="45.3574" lon="4.36181">
        <ele>826</ele>
        <time>2024-07-15T12:11:25Z</time>
      </trkpt>
      <trkpt lat="45.35715" lon="4.36168">
        <ele>832</ele>
        <time>2024-07-15T12:11:04Z</time>
      </trkpt>
      <trkpt lat="45.357" lon="4.36134">
        <ele>836</ele>
        <time>2024-07-15T12:10:41Z</time>
      </trkpt>
      <trkpt lat="45.35678" lon="4.36044">
        <ele>845</ele>
        <time>2024-07-15T12:09:48Z</time>
      </trkpt>
      <trkpt lat="45.35683" lon="4.3601">
        <ele>843</ele>
        <time>2024-07-15T12:09:28Z</time>
      </trkpt>
      <trkpt lat="45.35678" lon="4.35979">
        <ele>847</ele>
        <time>2024-07-15T12:09:10Z</time>
      </trkpt>
      <trkpt lat="45.35676" lon="4.35949">
        <ele>853</ele>
        <time>2024-07-15T12:08:53Z</time>
      </trkpt>
      <trkpt lat="45.35684" lon="4.35935">
        <ele>854</ele>
        <time>2024-07-15T12:08:43Z</time>
      </trkpt>
      <trkpt lat="45.35697" lon="4.35934">
        <ele>852</ele>
        <time>2024-07-15T12:08:33Z</time>
      </trkpt>
      <trkpt lat="45.35716" lon="4.35938">
        <ele>848</ele>
        <time>2024-07-15T12:08:17Z</time>
      </trkpt>
      <trkpt lat="45.35743" lon="4.35932">
        <ele>846</ele>
        <time>2024-07-15T12:07:55Z</time>
      </trkpt>
      <trkpt lat="45.35752" lon="4.35921">
        <ele>847</ele>
        <time>2024-07-15T12:07:46Z</time>
      </trkpt>
      <trkpt lat="45.35779" lon="4.35905">
        <ele>853</ele>
        <time>2024-07-15T12:07:23Z</time>
      </trkpt>
      <trkpt lat="45.35811" lon="4.35905">
        <ele>854</ele>
        <time>2024-07-15T12:06:57Z</time>
      </trkpt>
      <trkpt lat="45.35875" lon="4.35908">
        <ele>858</ele>
        <time>2024-07-15T12:06:06Z</time>
      </trkpt>
      <trkpt lat="45.35895" lon="4.35904">
        <ele>860</ele>
        <time>2024-07-15T12:05:49Z</time>
      </trkpt>
      <trkpt lat="45.35907" lon="4.35898">
        <ele>862</ele>
        <time>2024-07-15T12:05:39Z</time>
      </trkpt>
      <trkpt lat="45.35918" lon="4.35889">
        <ele>865</ele>
        <time>2024-07-15T12:05:29Z</time>
      </trkpt>
      <trkpt lat="45.35925" lon="4.35881">
        <ele>867</ele>
        <time>2024-07-15T12:05:22Z</time>
      </trkpt>
      <trkpt lat="45.35951" lon="4.35859">
        <ele>870</ele>
        <time>2024-07-15T12:04:58Z</time>
      </trkpt>
      <trkpt lat="45.35969" lon="4.35849">
        <ele>870</ele>
        <time>2024-07-15T12:04:42Z</time>
      </trkpt>
      <trkpt lat="45.36005" lon="4.3585">
        <ele>868</ele>
        <time>2024-07-15T12:04:13Z</time>
      </trkpt>
      <trkpt lat="45.35991" lon="4.35709">
        <ele>887</ele>
        <time>2024-07-15T12:02:53Z</time>
      </trkpt>
      <trkpt lat="45.35988" lon="4.35685">
        <ele>890</ele>
        <time>2024-07-15T12:02:40Z</time>
      </trkpt>
      <trkpt lat="45.35967" lon="4.35582">
        <ele>901</ele>
        <time>2024-07-15T12:01:39Z</time>
      </trkpt>
      <trkpt lat="45.35965" lon="4.35561">
        <ele>902</ele>
        <time>2024-07-15T12:01:27Z</time>
      </trkpt>
      <trkpt lat="45.35968" lon="4.35549">
        <ele>902</ele>
        <time>2024-07-15T12:01:20Z</time>
      </trkpt>
      <trkpt lat="45.35981" lon="4.3552">
        <ele>902</ele>
        <time>2024-07-15T12:01:01Z</time>
      </trkpt>
      <trkpt lat="45.35947" lon="4.35463">
        <ele>904</ele>
        <time>2024-07-15T12:00:19Z</time>
      </trkpt>
      <trkpt lat="45.35942" lon="4.35454">
        <ele>904</ele>
        <time>2024-07-15T12:00:12Z</time>
      </trkpt>
      <trkpt lat="45.35909" lon="4.35437">
        <ele>908</ele>
        <time>2024-07-15T11:59:44Z</time>
      </trkpt>
      <trkpt lat="45.35893" lon="4.35421">
        <ele>909</ele>
        <time>2024-07-15T11:59:29Z</time>
      </trkpt>
      <trkpt lat="45.35855" lon="4.35265">
        <ele>915</ele>
        <time>2024-07-15T11:57:56Z</time>
      </trkpt>
      <trkpt lat="45.35781" lon="4.35077">
        <ele>914</ele>
        <time>2024-07-15T11:55:54Z</time>
      </trkpt>
      <trkpt lat="45.3579" lon="4.35089">
        <ele>913</ele>
        <time>2024-07-15T11:55:45Z</time>
      </trkpt>
      <trkpt lat="45.35674" lon="4.35202">
        <ele>929</ele>
        <time>2024-07-15T11:53:52Z</time>
      </trkpt>
      <trkpt lat="45.35623" lon="4.35228">
        <ele>930</ele>
        <time>2024-07-15T11:53:09Z</time>
      </trkpt>
      <trkpt lat="45.35593" lon="4.35252">
        <ele>931</ele>
        <time>2024-07-15T11:52:41Z</time>
      </trkpt>
      <trkpt lat="45.35578" lon="4.35264">
        <ele>931</ele>
        <time>2024-07-15T11:52:27Z</time>
      </trkpt>
      <trkpt lat="45.35421" lon="4.35411">
        <ele>923</ele>
        <time>2024-07-15T11:49:57Z</time>
      </trkpt>
      <trkpt lat="45.35393" lon="4.3544">
        <ele>921</ele>
        <time>2024-07-15T11:49:29Z</time>
      </trkpt>
      <trkpt lat="45.3534" lon="4.35501">
        <ele>916</ele>
        <time>2024-07-15T11:48:34Z</time>
      </trkpt>
      <trkpt lat="45.3528" lon="4.35558">
        <ele>910</ele>
        <time>2024-07-15T11:47:37Z</time>
      </trkpt>
      <trkpt lat="45.35228" lon="4.35637">
        <ele>908</ele>
        <time>2024-07-15T11:46:36Z</time>
      </trkpt>
      <trkpt lat="45.3517" lon="4.35706">
        <ele>906</ele>
        <time>2024-07-15T11:45:35Z</time>
      </trkpt>
      <trkpt lat="45.3516" lon="4.35724">
        <ele>906</ele>
        <time>2024-07-15T11:45:22Z</time>
      </trkpt>
      <trkpt lat="45.35153" lon="4.35739">
        <ele>906</ele>
        <time>2024-07-15T11:45:12Z</time>
      </trkpt>
      <trkpt lat="45.35143" lon="4.35781">
        <ele>906</ele>
        <time>2024-07-15T11:44:47Z</time>
      </trkpt>
      <trkpt lat="45.35119" lon="4.35829">
        <ele>908</ele>
        <time>2024-07-15T11:44:14Z</time>
      </trkpt>
      <trkpt lat="45.35078" lon="4.35891">
        <ele>908</ele>
        <time>2024-07-15T11:43:26Z</time>
      </trkpt>
      <trkpt lat="45.35058" lon="4.35917">
        <ele>907</ele>
        <time>2024-07-15T11:43:05Z</time>
      </trkpt>
      <trkpt lat="45.35041" lon="4.35935">
        <ele>907</ele>
        <time>2024-07-15T11:42:48Z</time>
      </trkpt>
      <trkpt lat="45.35018" lon="4.35952">
        <ele>907</ele>
        <time>2024-07-15T11:42:27Z</time>
      </trkpt>
      <trkpt lat="45.34922" lon="4.36003">
        <ele>906</ele>
        <time>2024-07-15T11:41:05Z</time>
      </trkpt>
      <trkpt lat="45.34904" lon="4.36016">
        <ele>907</ele>
        <time>2024-07-15T11:40:49Z</time>
      </trkpt>
      <trkpt lat="45.34878" lon="4.36049">
        <ele>909</ele>
        <time>2024-07-15T11:40:21Z</time>
      </trkpt>
      <trkpt lat="45.3487" lon="4.36058">
        <ele>911</ele>
        <time>2024-07-15T11:40:13Z</time>
      </trkpt>
      <trkpt lat="45.34878" lon="4.36049">
        <ele>909</ele>
        <time>2024-07-15T11:40:04Z</time>
      </trkpt>
      <trkpt lat="45.34884" lon="4.36057">
        <ele>909</ele>
        <time>2024-07-15T11:39:58Z</time>
      </trkpt>
      <trkpt lat="45.34885" lon="4.36064">
        <ele>910</ele>
        <time>2024-07-15T11:39:54Z</time>
      </trkpt>
      <trkpt lat="45.34882" lon="4.36157">
        <ele>914</ele>
        <time>2024-07-15T11:39:01Z</time>
      </trkpt>
      <trkpt lat="45.34876" lon="4.36224">
        <ele>919</ele>
        <time>2024-07-15T11:38:23Z</time>
      </trkpt>
      <trkpt lat="45.34845" lon="4.36389">
        <ele>915</ele>
        <time>2024-07-15T11:36:47Z</time>
      </trkpt>
      <trkpt lat="45.34819" lon="4.36462">
        <ele>914</ele>
        <time>2024-07-15T11:36:01Z</time>
      </trkpt>
      <trkpt lat="45.34838" lon="4.36448">
        <ele>912</ele>
        <time>2024-07-15T11:35:44Z</time>
      </trkpt>
      <trkpt lat="45.34819" lon="4.36462">
        <ele>914</ele>
        <time>2024-07-15T11:35:27Z</time>
      </trkpt>
      <trkpt lat="45.34787" lon="4.36554">
        <ele>913</ele>
        <time>2024-07-15T11:34:29Z</time>
      </trkpt>
      <trkpt lat="45.34735" lon="4.36734">
        <ele>899</ele>
        <time>2024-07-15T11:32:40Z</time>
      </trkpt>
      <trkpt lat="45.34693" lon="4.36816">
        <ele>892</ele>
        <time>2024-07-15T11:31:43Z</time>
      </trkpt>
      <trkpt lat="45.34607" lon="4.36921">
        <ele>880</ele>
        <time>2024-07-15T11:30:12Z</time>
      </trkpt>
      <trkpt lat="45.34502" lon="4.3706">
        <ele>877</ele>
        <time>2024-07-15T11:28:17Z</time>
      </trkpt>
      <trkpt lat="45.34494" lon="4.37069">
        <ele>878</ele>
        <time>2024-07-15T11:28:09Z</time>
      </trkpt>
      <trkpt lat="45.34445" lon="4.37108">
        <ele>884</ele>
        <time>2024-07-15T11:27:24Z</time>
      </trkpt>
      <trkpt lat="45.34436" lon="4.37144">
        <ele>889</ele>
        <time>2024-07-15T11:27:02Z</time>
      </trkpt>
      <trkpt lat="45.34433" lon="4.37159">
        <ele>891</ele>
        <time>2024-07-15T11:26:54Z</time>
      </trkpt>
      <trkpt lat="45.34486" lon="4.37271">
        <ele>898</ele>
        <time>2024-07-15T11:25:38Z</time>
      </trkpt>
      <trkpt lat="45.346" lon="4.37333">
        <ele>903</ele>
        <time>2024-07-15T11:24:00Z</time>
      </trkpt>
      <trkpt lat="45.34616" lon="4.37382">
        <ele>905</ele>
        <time>2024-07-15T11:23:30Z</time>
      </trkpt>
      <trkpt lat="45.34618" lon="4.37391">
        <ele>905</ele>
        <time>2024-07-15T11:23:24Z</time>
      </trkpt>
      <trkpt lat="45.34617" lon="4.37402">
        <ele>905</ele>
        <time>2024-07-15T11:23:18Z</time>
      </trkpt>
      <trkpt lat="45.34611" lon="4.37418">
        <ele>906</ele>
        <time>2024-07-15T11:23:08Z</time>
      </trkpt>
      <trkpt lat="45.34598" lon="4.37437">
        <ele>908</ele>
        <time>2024-07-15T11:22:53Z</time>
      </trkpt>
      <trkpt lat="45.34594" lon="4.37447">
        <ele>908</ele>
        <time>2024-07-15T11:22:46Z</time>
      </trkpt>
      <trkpt lat="45.34578" lon="4.37495">
        <ele>912</ele>
        <time>2024-07-15T11:22:16Z</time>
      </trkpt>
      <trkpt lat="45.34562" lon="4.37505">
        <ele>912</ele>
        <time>2024-07-15T11:22:02Z</time>
      </trkpt>
      <trkpt lat="45.34547" lon="4.37517">
        <ele>912</ele>
        <time>2024-07-15T11:21:49Z</time>
      </trkpt>
      <trkpt lat="45.3453" lon="4.37548">
        <ele>913</ele>
        <time>2024-07-15T11:21:27Z</time>
      </trkpt>
      <trkpt lat="45.34524" lon="4.37567">
        <ele>913</ele>
        <time>2024-07-15T11:21:15Z</time>
      </trkpt>
      <trkpt lat="45.34522" lon="4.376">
        <ele>914</ele>
        <time>2024-07-15T11:20:56Z</time>
      </trkpt>
      <trkpt lat="45.34519" lon="4.37615">
        <ele>914</ele>
        <time>2024-07-15T11:20:47Z</time>
      </trkpt>
      <trkpt lat="45.34487" lon="4.37712">
        <ele>916</ele>
        <time>2024-07-15T11:19:47Z</time>
      </trkpt>
      <trkpt lat="45.34473" lon="4.37764">
        <ele>916</ele>
        <time>2024-07-15T11:19:16Z</time>
      </trkpt>
      <trkpt lat="45.34468" lon="4.37801">
        <ele>918</ele>
        <time>2024-07-15T11:18:55Z</time>
      </trkpt>
      <trkpt lat="45.34468" lon="4.3782">
        <ele>918</ele>
        <time>2024-07-15T11:18:44Z</time>
      </trkpt>
      <trkpt lat="45.34473" lon="4.37858">
        <ele>918</ele>
        <time>2024-07-15T11:18:22Z</time>
      </trkpt>
      <trkpt lat="45.34474" lon="4.37888">
        <ele>919</ele>
        <time>2024-07-15T11:18:05Z</time>
      </trkpt>
      <trkpt lat="45.34472" lon="4.37903">
        <ele>919</ele>
        <time>2024-07-15T11:17:57Z</time>
      </trkpt>
      <trkpt lat="45.34466" lon="4.3793">
        <ele>920</ele>
        <time>2024-07-15T11:17:41Z</time>
      </trkpt>
      <trkpt lat="45.34461" lon="4.37946">
        <ele>920</ele>
        <time>2024-07-15T11:17:31Z</time>
      </trkpt>
      <trkpt lat="45.34455" lon="4.37965">
        <ele>921</ele>
        <time>2024-07-15T11:17:19Z</time>
      </trkpt>
      <trkpt lat="45.34436" lon="4.38008">
        <ele>922</ele>
        <time>2024-07-15T11:16:51Z</time>
      </trkpt>
      <trkpt lat="45.34411" lon="4.38047">
        <ele>923</ele>
        <time>2024-07-15T11:16:21Z</time>
      </trkpt>
      <trkpt lat="45.34374" lon="4.38094">
        <ele>925</ele>
        <time>2024-07-15T11:15:41Z</time>
      </trkpt>
      <trkpt lat="45.34363" lon="4.3812">
        <ele>925</ele>
        <time>2024-07-15T11:15:24Z</time>
      </trkpt>
      <trkpt lat="45.34346" lon="4.38178">
        <ele>925</ele>
        <time>2024-07-15T11:14:49Z</time>
      </trkpt>
      <trkpt lat="45.34318" lon="4.38261">
        <ele>932</ele>
        <time>2024-07-15T11:13:57Z</time>
      </trkpt>
      <trkpt lat="45.34315" lon="4.38277">
        <ele>933</ele>
        <time>2024-07-15T11:13:48Z</time>
      </trkpt>
      <trkpt lat="45.34312" lon="4.38341">
        <ele>937</ele>
        <time>2024-07-15T11:13:11Z</time>
      </trkpt>
      <trkpt lat="45.34311" lon="4.38359">
        <ele>937</ele>
        <time>2024-07-15T11:13:01Z</time>
      </trkpt>
      <trkpt lat="45.34308" lon="4.38375">
        <ele>938</ele>
        <time>2024-07-15T11:12:52Z</time>
      </trkpt>
      <trkpt lat="45.34281" lon="4.38468">
        <ele>939</ele>
        <time>2024-07-15T11:11:55Z</time>
      </trkpt>
      <trkpt lat="45.34271" lon="4.38494">
        <ele>939</ele>
        <time>2024-07-15T11:11:39Z</time>
      </trkpt>
      <trkpt lat="45.34272" lon="4.38495">
        <ele>939</ele>
        <time>2024-07-15T11:11:38Z</time>
      </trkpt>
      <trkpt lat="45.34358" lon="4.38518">
        <ele>944</ele>
        <time>2024-07-15T11:10:28Z</time>
      </trkpt>
      <trkpt lat="45.34359" lon="4.38524">
        <ele>944</ele>
        <time>2024-07-15T11:10:24Z</time>
      </trkpt>
      <trkpt lat="45.3436" lon="4.38531">
        <ele>944</ele>
        <time>2024-07-15T11:10:20Z</time>
      </trkpt>
      <trkpt lat="45.34384" lon="4.386">
        <ele>947</ele>
        <time>2024-07-15T11:09:37Z</time>
      </trkpt>
      <trkpt lat="45.3439" lon="4.3862">
        <ele>948</ele>
        <time>2024-07-15T11:09:25Z</time>
      </trkpt>
      <trkpt lat="45.34406" lon="4.38694">
        <ele>952</ele>
        <time>2024-07-15T11:08:41Z</time>
      </trkpt>
      <trkpt lat="45.34408" lon="4.38727">
        <ele>954</ele>
        <time>2024-07-15T11:08:22Z</time>
      </trkpt>
      <trkpt lat="45.3442" lon="4.3877">
        <ele>958</ele>
        <time>2024-07-15T11:07:56Z</time>
      </trkpt>
      <trkpt lat="45.34473" lon="4.38936">
        <ele>973</ele>
        <time>2024-07-15T11:06:14Z</time>
      </trkpt>
      <trkpt lat="45.34504" lon="4.39012">
        <ele>976</ele>
        <time>2024-07-15T11:05:24Z</time>
      </trkpt>
      <trkpt lat="45.34505" lon="4.38999">
        <ele>976</ele>
        <time>2024-07-15T11:05:17Z</time>
      </trkpt>
      <trkpt lat="45.34504" lon="4.39012">
        <ele>976</ele>
        <time>2024-07-15T11:05:10Z</time>
      </trkpt>
      <trkpt lat="45.34499" lon="4.39049">
        <ele>977</ele>
        <time>2024-07-15T11:04:48Z</time>
      </trkpt>
      <trkpt lat="45.34488" lon="4.39085">
        <ele>978</ele>
        <time>2024-07-15T11:04:26Z</time>
      </trkpt>
      <trkpt lat="45.34483" lon="4.39092">
        <ele>979</ele>
        <time>2024-07-15T11:04:21Z</time>
      </trkpt>
      <trkpt lat="45.34478" lon="4.39094">
        <ele>979</ele>
        <time>2024-07-15T11:04:16Z</time>
      </trkpt>
      <trkpt lat="45.34483" lon="4.39092">
        <ele>979</ele>
        <time>2024-07-15T11:04:12Z</time>
      </trkpt>
      <trkpt lat="45.34482" lon="4.3911">
        <ele>981</ele>
        <time>2024-07-15T11:04:02Z</time>
      </trkpt>
      <trkpt lat="45.34475" lon="4.39139">
        <ele>983</ele>
        <time>2024-07-15T11:03:45Z</time>
      </trkpt>
      <trkpt lat="45.34474" lon="4.39153">
        <ele>985</ele>
        <time>2024-07-15T11:03:37Z</time>
      </trkpt>
      <trkpt lat="45.34477" lon="4.39171">
        <ele>986</ele>
        <time>2024-07-15T11:03:27Z</time>
      </trkpt>
      <trkpt lat="45.34477" lon="4.39183">
        <ele>987</ele>
        <time>2024-07-15T11:03:20Z</time>
      </trkpt>
      <trkpt lat="45.34473" lon="4.39218">
        <ele>989</ele>
        <time>2024-07-15T11:03:00Z</time>
      </trkpt>
      <trkpt lat="45.3447" lon="4.39227">
        <ele>990</ele>
        <time>2024-07-15T11:02:54Z</time>
      </trkpt>
      <trkpt lat="45.34463" lon="4.39238">
        <ele>991</ele>
        <time>2024-07-15T11:02:46Z</time>
      </trkpt>
      <trkpt lat="45.34448" lon="4.39252">
        <ele>993</ele>
        <time>2024-07-15T11:02:32Z</time>
      </trkpt>
      <trkpt lat="45.34435" lon="4.3927">
        <ele>994</ele>
        <time>2024-07-15T11:02:17Z</time>
      </trkpt>
      <trkpt lat="45.34427" lon="4.39282">
        <ele>995</ele>
        <time>2024-07-15T11:02:08Z</time>
      </trkpt>
      <trkpt lat="45.34417" lon="4.39302">
        <ele>996</ele>
        <time>2024-07-15T11:01:54Z</time>
      </trkpt>
      <trkpt lat="45.34404" lon="4.39321">
        <ele>995</ele>
        <time>2024-07-15T11:01:39Z</time>
      </trkpt>
      <trkpt lat="45.34389" lon="4.39362">
        <ele>995</ele>
        <time>2024-07-15T11:01:13Z</time>
      </trkpt>
      <trkpt lat="45.34385" lon="4.39377">
        <ele>995</ele>
        <time>2024-07-15T11:01:04Z</time>
      </trkpt>
      <trkpt lat="45.34381" lon="4.39408">
        <ele>995</ele>
        <time>2024-07-15T11:00:46Z</time>
      </trkpt>
      <trkpt lat="45.34373" lon="4.39442">
        <ele>995</ele>
        <time>2024-07-15T11:00:26Z</time>
      </trkpt>
      <trkpt lat="45.34371" lon="4.39462">
        <ele>995</ele>
        <time>2024-07-15T11:00:15Z</time>
      </trkpt>
      <trkpt lat="45.34363" lon="4.39483">
        <ele>996</ele>
        <time>2024-07-15T11:00:01Z</time>
      </trkpt>
      <trkpt lat="45.34359" lon="4.39499">
        <ele>996</ele>
        <time>2024-07-15T10:59:52Z</time>
      </trkpt>
      <trkpt lat="45.34353" lon="4.39574">
        <ele>998</ele>
        <time>2024-07-15T10:59:09Z</time>
      </trkpt>
      <trkpt lat="45.34337" lon="4.3965">
        <ele>1000</ele>
        <time>2024-07-15T10:58:25Z</time>
      </trkpt>
      <trkpt lat="45.34338" lon="4.39664">
        <ele>1001</ele>
        <time>2024-07-15T10:58:17Z</time>
      </trkpt>
      <trkpt lat="45.34337" lon="4.39672">
        <ele>1001</ele>
        <time>2024-07-15T10:58:12Z</time>
      </trkpt>
      <trkpt lat="45.34332" lon="4.39681">
        <ele>1001</ele>
        <time>2024-07-15T10:58:06Z</time>
      </trkpt>
      <trkpt lat="45.3433" lon="4.39686">
        <ele>1002</ele>
        <time>2024-07-15T10:58:02Z</time>
      </trkpt>
      <trkpt lat="45.34325" lon="4.39711">
        <ele>1002</ele>
        <time>2024-07-15T10:57:48Z</time>
      </trkpt>
      <trkpt lat="45.34324" lon="4.39765">
        <ele>1003</ele>
        <time>2024-07-15T10:57:17Z</time>
      </trkpt>
      <trkpt lat="45.34321" lon="4.39831">
        <ele>1005</ele>
        <time>2024-07-15T10:56:40Z</time>
      </trkpt>
      <trkpt lat="45.34322" lon="4.39859">
        <ele>1004</ele>
        <time>2024-07-15T10:56:24Z</time>
      </trkpt>
      <trkpt lat="45.34324" lon="4.39878">
        <ele>1004</ele>
        <time>2024-07-15T10:56:14Z</time>
      </trkpt>
      <trkpt lat="45.34328" lon="4.39917">
        <ele>1004</ele>
        <time>2024-07-15T10:55:51Z</time>
      </trkpt>
      <trkpt lat="45.34329" lon="4.4">
        <ele>1003</ele>
        <time>2024-07-15T10:55:05Z</time>
      </trkpt>
      <trkpt lat="45.34321" lon="4.4005">
        <ele>1005</ele>
        <time>2024-07-15T10:54:36Z</time>
      </trkpt>
      <trkpt lat="45.34321" lon="4.40082">
        <ele>1007</ele>
        <time>2024-07-15T10:54:18Z</time>
      </trkpt>
      <trkpt lat="45.34327" lon="4.40191">
        <ele>1014</ele>
        <time>2024-07-15T10:53:16Z</time>
      </trkpt>
      <trkpt lat="45.34324" lon="4.40277">
        <ele>1016</ele>
        <time>2024-07-15T10:52:28Z</time>
      </trkpt>
      <trkpt lat="45.34329" lon="4.4033">
        <ele>1017</ele>
        <time>2024-07-15T10:51:58Z</time>
      </trkpt>
      <trkpt lat="45.34333" lon="4.40346">
        <ele>1018</ele>
        <time>2024-07-15T10:51:48Z</time>
      </trkpt>
      <trkpt lat="45.34328" lon="4.40353">
        <ele>1018</ele>
        <time>2024-07-15T10:51:43Z</time>
      </trkpt>
      <trkpt lat="45.34333" lon="4.40346">
        <ele>1018</ele>
        <time>2024-07-15T10:51:37Z</time>
      </trkpt>
      <trkpt lat="45.34331" lon="4.40339">
        <ele>1009.1</ele>
      </trkpt>
      <trkpt lat="45.34331" lon="4.40337">
        <ele>1009.1</ele>
      </trkpt>
      <trkpt lat="45.34298" lon="4.40311">
        <ele>1007.7</ele>
      </trkpt>
      <trkpt lat="45.34278" lon="4.40297">
        <ele>1006.7</ele>
      </trkpt>
      <trkpt lat="45.34263" lon="4.40289">
        <ele>1005.9</ele>
      </trkpt>
      <trkpt lat="45.34248" lon="4.40282">
        <ele>1005.1</ele>
      </trkpt>
      <trkpt lat="45.34239" lon="4.40274">
        <ele>1004.9</ele>
      </trkpt>
      <trkpt lat="45.3423" lon="4.40268">
        <ele>1004.6</ele>
      </trkpt>
      <trkpt lat="45.34217" lon="4.40259">
        <ele>1004.1</ele>
      </trkpt>
      <trkpt lat="45.34205" lon="4.4025">
        <ele>1003.4</ele>
      </trkpt>
      <trkpt lat="45.34185" lon="4.40235">
        <ele>1002.5</ele>
      </trkpt>
      <trkpt lat="45.34162" lon="4.40217">
        <ele>1002</ele>
      </trkpt>
      <trkpt lat="45.34153" lon="4.40211">
        <ele>1002</ele>
      </trkpt>
      <trkpt lat="45.34136" lon="4.40198">
        <ele>1002</ele>
      </trkpt>
      <trkpt lat="45.34128" lon="4.40192">
        <ele>1001.9</ele>
      </trkpt>
      <trkpt lat="45.34103" lon="4.40174">
        <ele>1002</ele>
      </trkpt>
      <trkpt lat="45.34088" lon="4.40163">
        <ele>1002</ele>
      </trkpt>
      <trkpt lat="45.34052" lon="4.4014">
        <ele>1001.7</ele>
      </trkpt>
      <trkpt lat="45.34054" lon="4.40135">
        <ele>1001.9</ele>
      </trkpt>
      <trkpt lat="45.34054" lon="4.40128">
        <ele>1001.9</ele>
      </trkpt>
      <trkpt lat="45.34055" lon="4.40118">
        <ele>1002</ele>
      </trkpt>
      <trkpt lat="45.34055" lon="4.40118">
        <ele>1002</ele>
        <extensions>
          <visugpx:TrkExtension xmlns:visugpx="https://www.visugpx.com/editgpx/">
            <visugpx:node>1</visugpx:node>
            </visugpx:TrkExtension>
        </extensions>
      </trkpt>
      <trkpt lat="45.34054" lon="4.40128">
        <ele>1001.9</ele>
      </trkpt>
      <trkpt lat="45.34054" lon="4.40135">
        <ele>1001.9</ele>
      </trkpt>
      <trkpt lat="45.34052" lon="4.4014">
        <ele>1001.7</ele>
      </trkpt>
      <trkpt lat="45.34049" lon="4.40143">
        <ele>1001.5</ele>
      </trkpt>
      <trkpt lat="45.34045" lon="4.40144">
        <ele>1001.2</ele>
      </trkpt>
      <trkpt lat="45.34035" lon="4.40147">
        <ele>1000.5</ele>
      </trkpt>
      <trkpt lat="45.34028" lon="4.40148">
        <ele>1000</ele>
      </trkpt>
      <trkpt lat="45.34023" lon="4.40149">
        <ele>999.5</ele>
      </trkpt>
      <trkpt lat="45.34009" lon="4.40153">
        <ele>998</ele>
      </trkpt>
      <trkpt lat="45.34003" lon="4.40154">
        <ele>997.3</ele>
      </trkpt>
      <trkpt lat="45.33996" lon="4.40156">
        <ele>996.2</ele>
      </trkpt>
      <trkpt lat="45.33991" lon="4.40157">
        <ele>995.3</ele>
      </trkpt>
      <trkpt lat="45.33987" lon="4.40159">
        <ele>994.5</ele>
      </trkpt>
      <trkpt lat="45.33983" lon="4.40161">
        <ele>993.8</ele>
      </trkpt>
      <trkpt lat="45.3398" lon="4.40165">
        <ele>993.4</ele>
      </trkpt>
      <trkpt lat="45.33976" lon="4.40169">
        <ele>992.9</ele>
      </trkpt>
      <trkpt lat="45.33971" lon="4.40174">
        <ele>992.7</ele>
      </trkpt>
      <trkpt lat="45.33966" lon="4.40178">
        <ele>992.7</ele>
      </trkpt>
      <trkpt lat="45.33961" lon="4.40182">
        <ele>992.9</ele>
      </trkpt>
      <trkpt lat="45.33966" lon="4.40184">
        <ele>993.5</ele>
      </trkpt>
      <trkpt lat="45.33973" lon="4.40186">
        <ele>994.2</ele>
      </trkpt>
      <trkpt lat="45.33979" lon="4.40189">
        <ele>995.2</ele>
      </trkpt>
      <trkpt lat="45.33983" lon="4.40194">
        <ele>996.1</ele>
      </trkpt>
      <trkpt lat="45.33987" lon="4.40199">
        <ele>996.8</ele>
      </trkpt>
      <trkpt lat="45.3399" lon="4.40205">
        <ele>997.3</ele>
      </trkpt>
      <trkpt lat="45.33991" lon="4.40212">
        <ele>997.6</ele>
      </trkpt>
      <trkpt lat="45.33991" lon="4.40216">
        <ele>997.8</ele>
      </trkpt>
      <trkpt lat="45.33991" lon="4.4023">
        <ele>998.6</ele>
      </trkpt>
      <trkpt lat="45.33989" lon="4.40259">
        <ele>1000.6</ele>
      </trkpt>
      <trkpt lat="45.33987" lon="4.40277">
        <ele>1001.9</ele>
      </trkpt>
      <trkpt lat="45.33985" lon="4.40293">
        <ele>1003.1</ele>
      </trkpt>
      <trkpt lat="45.33983" lon="4.40307">
        <ele>1004.1</ele>
      </trkpt>
      <trkpt lat="45.33979" lon="4.4034">
        <ele>1006.2</ele>
      </trkpt>
      <trkpt lat="45.33978" lon="4.40356">
        <ele>1007.4</ele>
      </trkpt>
      <trkpt lat="45.33975" lon="4.40384">
        <ele>1008.8</ele>
      </trkpt>
      <trkpt lat="45.33973" lon="4.40391">
        <ele>1009.1</ele>
      </trkpt>
      <trkpt lat="45.33971" lon="4.40399">
        <ele>1009.8</ele>
      </trkpt>
      <trkpt lat="45.3397" lon="4.40403">
        <ele>1010.1</ele>
      </trkpt>
      <trkpt lat="45.33967" lon="4.40413">
        <ele>1010.8</ele>
      </trkpt>
      <trkpt lat="45.33964" lon="4.40423">
        <ele>1011.5</ele>
      </trkpt>
      <trkpt lat="45.3396" lon="4.40433">
        <ele>1012.2</ele>
      </trkpt>
      <trkpt lat="45.33957" lon="4.40441">
        <ele>1012.8</ele>
      </trkpt>
      <trkpt lat="45.33954" lon="4.40449">
        <ele>1013.1</ele>
      </trkpt>
      <trkpt lat="45.33947" lon="4.40464">
        <ele>1013.6</ele>
      </trkpt>
      <trkpt lat="45.33943" lon="4.40472">
        <ele>1014</ele>
      </trkpt>
      <trkpt lat="45.33938" lon="4.40479">
        <ele>1014.2</ele>
      </trkpt>
      <trkpt lat="45.33934" lon="4.40487">
        <ele>1014.5</ele>
      </trkpt>
      <trkpt lat="45.3393" lon="4.40494">
        <ele>1014.8</ele>
      </trkpt>
      <trkpt lat="45.33926" lon="4.40501">
        <ele>1015</ele>
      </trkpt>
      <trkpt lat="45.33921" lon="4.40508">
        <ele>1015.3</ele>
      </trkpt>
      <trkpt lat="45.33917" lon="4.40518">
        <ele>1015.6</ele>
      </trkpt>
      <trkpt lat="45.33913" lon="4.40527">
        <ele>1016.1</ele>
      </trkpt>
      <trkpt lat="45.33909" lon="4.40535">
        <ele>1016.5</ele>
      </trkpt>
      <trkpt lat="45.33904" lon="4.40544">
        <ele>1017</ele>
      </trkpt>
      <trkpt lat="45.33895" lon="4.40562">
        <ele>1018</ele>
      </trkpt>
      <trkpt lat="45.3389" lon="4.40568">
        <ele>1018.4</ele>
      </trkpt>
      <trkpt lat="45.33884" lon="4.40577">
        <ele>1018.9</ele>
      </trkpt>
      <trkpt lat="45.33882" lon="4.40583">
        <ele>1019.2</ele>
      </trkpt>
      <trkpt lat="45.33879" lon="4.40587">
        <ele>1019.5</ele>
      </trkpt>
      <trkpt lat="45.33875" lon="4.40595">
        <ele>1019.9</ele>
      </trkpt>
      <trkpt lat="45.33864" lon="4.40612">
        <ele>1020.9</ele>
      </trkpt>
      <trkpt lat="45.33859" lon="4.4062">
        <ele>1021.3</ele>
      </trkpt>
      <trkpt lat="45.33854" lon="4.40629">
        <ele>1021.5</ele>
      </trkpt>
      <trkpt lat="45.3385" lon="4.40637">
        <ele>1021.6</ele>
      </trkpt>
      <trkpt lat="45.33845" lon="4.40646">
        <ele>1021.6</ele>
      </trkpt>
      <trkpt lat="45.33839" lon="4.40657">
        <ele>1021.7</ele>
      </trkpt>
      <trkpt lat="45.33835" lon="4.40667">
        <ele>1022</ele>
      </trkpt>
      <trkpt lat="45.33831" lon="4.40674">
        <ele>1021.8</ele>
      </trkpt>
      <trkpt lat="45.33826" lon="4.40683">
        <ele>1021.5</ele>
      </trkpt>
      <trkpt lat="45.33824" lon="4.40689">
        <ele>1021.3</ele>
      </trkpt>
      <trkpt lat="45.33822" lon="4.40693">
        <ele>1021.2</ele>
      </trkpt>
      <trkpt lat="45.33819" lon="4.40702">
        <ele>1020.8</ele>
      </trkpt>
      <trkpt lat="45.33815" lon="4.40713">
        <ele>1020.2</ele>
      </trkpt>
      <trkpt lat="45.33812" lon="4.40721">
        <ele>1019.7</ele>
      </trkpt>
      <trkpt lat="45.33809" lon="4.40729">
        <ele>1019.1</ele>
      </trkpt>
      <trkpt lat="45.33807" lon="4.40737">
        <ele>1018.6</ele>
      </trkpt>
      <trkpt lat="45.33794" lon="4.40764">
        <ele>1016.3</ele>
      </trkpt>
      <trkpt lat="45.33777" lon="4.40795">
        <ele>1013.9</ele>
      </trkpt>
      <trkpt lat="45.33764" lon="4.40825">
        <ele>1011.9</ele>
      </trkpt>
      <trkpt lat="45.33748" lon="4.40864">
        <ele>1009.7</ele>
      </trkpt>
      <trkpt lat="45.33735" lon="4.40892">
        <ele>1007.7</ele>
      </trkpt>
      <trkpt lat="45.33726" lon="4.40918">
        <ele>1005.5</ele>
      </trkpt>
      <trkpt lat="45.33716" lon="4.4094">
        <ele>1003.5</ele>
      </trkpt>
      <trkpt lat="45.33721" lon="4.40974">
        <ele>1002.8</ele>
      </trkpt>
      <trkpt lat="45.33727" lon="4.41004">
        <ele>1002.3</ele>
      </trkpt>
      <trkpt lat="45.33731" lon="4.41031">
        <ele>1000.9</ele>
      </trkpt>
      <trkpt lat="45.33732" lon="4.41035">
        <ele>1000.6</ele>
        <extensions>
          <visugpx:TrkExtension xmlns:visugpx="https://www.visugpx.com/editgpx/">
            <visugpx:node>2</visugpx:node>
            </visugpx:TrkExtension>
        </extensions>
      </trkpt>
      <trkpt lat="45.33735" lon="4.41051">
        <ele>999.3</ele>
      </trkpt>
      <trkpt lat="45.3374" lon="4.4107">
        <ele>998.2</ele>
      </trkpt>
      <trkpt lat="45.33742" lon="4.41085">
        <ele>997</ele>
      </trkpt>
      <trkpt lat="45.33744" lon="4.41097">
        <ele>995.9</ele>
      </trkpt>
      <trkpt lat="45.33746" lon="4.41113">
        <ele>994.4</ele>
      </trkpt>
      <trkpt lat="45.33748" lon="4.41124">
        <ele>993.4</ele>
      </trkpt>
      <trkpt lat="45.33749" lon="4.41134">
        <ele>992.4</ele>
      </trkpt>
      <trkpt lat="45.33744" lon="4.41145">
        <ele>990.7</ele>
      </trkpt>
      <trkpt lat="45.3374" lon="4.41152">
        <ele>989.7</ele>
      </trkpt>
      <trkpt lat="45.33737" lon="4.41158">
        <ele>988.9</ele>
      </trkpt>
      <trkpt lat="45.33735" lon="4.41164">
        <ele>988.2</ele>
      </trkpt>
      <trkpt lat="45.33734" lon="4.4117">
        <ele>987.6</ele>
      </trkpt>
      <trkpt lat="45.33735" lon="4.41176">
        <ele>987.1</ele>
      </trkpt>
      <trkpt lat="45.33729" lon="4.41185">
        <ele>986</ele>
      </trkpt>
      <trkpt lat="45.33725" lon="4.41193">
        <ele>985.2</ele>
      </trkpt>
      <trkpt lat="45.3372" lon="4.41201">
        <ele>984.6</ele>
      </trkpt>
      <trkpt lat="45.33716" lon="4.41207">
        <ele>984</ele>
      </trkpt>
      <trkpt lat="45.33711" lon="4.41212">
        <ele>983.3</ele>
      </trkpt>
      <trkpt lat="45.3371" lon="4.41213">
        <ele>983.2</ele>
      </trkpt>
      <trkpt lat="45.33707" lon="4.41215">
        <ele>982.8</ele>
      </trkpt>
      <trkpt lat="45.337" lon="4.41218">
        <ele>981.9</ele>
      </trkpt>
      <trkpt lat="45.33693" lon="4.41223">
        <ele>980.8</ele>
      </trkpt>
      <trkpt lat="45.33689" lon="4.41225">
        <ele>980.2</ele>
      </trkpt>
      <trkpt lat="45.33686" lon="4.41225">
        <ele>979.9</ele>
      </trkpt>
      <trkpt lat="45.33684" lon="4.41223">
        <ele>979.8</ele>
      </trkpt>
      <trkpt lat="45.33681" lon="4.4122">
        <ele>979.7</ele>
      </trkpt>
      <trkpt lat="45.33678" lon="4.41218">
        <ele>979.5</ele>
      </trkpt>
      <trkpt lat="45.33674" lon="4.41217">
        <ele>979.2</ele>
      </trkpt>
      <trkpt lat="45.33669" lon="4.41215">
        <ele>978.8</ele>
      </trkpt>
      <trkpt lat="45.33663" lon="4.41214">
        <ele>978.2</ele>
      </trkpt>
      <trkpt lat="45.33656" lon="4.41212">
        <ele>977.4</ele>
      </trkpt>
      <trkpt lat="45.33653" lon="4.4121">
        <ele>977.2</ele>
      </trkpt>
      <trkpt lat="45.33645" lon="4.41207">
        <ele>976.3</ele>
      </trkpt>
      <trkpt lat="45.33641" lon="4.41205">
        <ele>975.9</ele>
      </trkpt>
      <trkpt lat="45.33636" lon="4.41206">
        <ele>975</ele>
      </trkpt>
      <trkpt lat="45.33639" lon="4.41215">
        <ele>975.3</ele>
      </trkpt>
      <trkpt lat="45.33642" lon="4.41219">
        <ele>975.5</ele>
      </trkpt>
      <trkpt lat="45.33639" lon="4.41222">
        <ele>975</ele>
      </trkpt>
      <trkpt lat="45.33637" lon="4.41224">
        <ele>974.5</ele>
      </trkpt>
      <trkpt lat="45.33634" lon="4.41228">
        <ele>973.6</ele>
      </trkpt>
      <trkpt lat="45.33631" lon="4.41231">
        <ele>972.8</ele>
      </trkpt>
      <trkpt lat="45.33629" lon="4.41234">
        <ele>972.3</ele>
      </trkpt>
      <trkpt lat="45.33626" lon="4.41239">
        <ele>971.6</ele>
      </trkpt>
      <trkpt lat="45.33624" lon="4.41244">
        <ele>971.1</ele>
      </trkpt>
      <trkpt lat="45.33622" lon="4.4125">
        <ele>970.6</ele>
      </trkpt>
      <trkpt lat="45.3362" lon="4.41256">
        <ele>970</ele>
      </trkpt>
      <trkpt lat="45.33618" lon="4.41262">
        <ele>969.5</ele>
      </trkpt>
      <trkpt lat="45.33616" lon="4.41267">
        <ele>969</ele>
      </trkpt>
      <trkpt lat="45.33614" lon="4.41275">
        <ele>968.4</ele>
      </trkpt>
      <trkpt lat="45.33612" lon="4.4128">
        <ele>968.1</ele>
      </trkpt>
      <trkpt lat="45.33609" lon="4.41285">
        <ele>967.8</ele>
      </trkpt>
      <trkpt lat="45.33606" lon="4.4129">
        <ele>967.6</ele>
      </trkpt>
      <trkpt lat="45.33603" lon="4.41292">
        <ele>967.4</ele>
      </trkpt>
      <trkpt lat="45.33601" lon="4.41294">
        <ele>967.3</ele>
      </trkpt>
      <trkpt lat="45.33598" lon="4.41297">
        <ele>967.1</ele>
      </trkpt>
      <trkpt lat="45.33594" lon="4.41299">
        <ele>966.8</ele>
      </trkpt>
      <trkpt lat="45.3359" lon="4.41302">
        <ele>966.5</ele>
      </trkpt>
      <trkpt lat="45.33585" lon="4.41305">
        <ele>966.1</ele>
      </trkpt>
      <trkpt lat="45.33581" lon="4.41308">
        <ele>965.6</ele>
      </trkpt>
      <trkpt lat="45.33576" lon="4.41311">
        <ele>964.9</ele>
      </trkpt>
      <trkpt lat="45.33571" lon="4.41313">
        <ele>964.2</ele>
      </trkpt>
      <trkpt lat="45.33566" lon="4.41315">
        <ele>963.6</ele>
      </trkpt>
      <trkpt lat="45.33562" lon="4.41316">
        <ele>963.1</ele>
      </trkpt>
      <trkpt lat="45.33558" lon="4.41317">
        <ele>962.7</ele>
      </trkpt>
      <trkpt lat="45.33552" lon="4.41318">
        <ele>962.2</ele>
      </trkpt>
      <trkpt lat="45.33546" lon="4.41319">
        <ele>962</ele>
      </trkpt>
      <trkpt lat="45.33539" lon="4.4132">
        <ele>961.6</ele>
      </trkpt>
      <trkpt lat="45.33526" lon="4.4132">
        <ele>961</ele>
      </trkpt>
      <trkpt lat="45.33501" lon="4.4132">
        <ele>960</ele>
      </trkpt>
      <trkpt lat="45.33482" lon="4.41321">
        <ele>959.6</ele>
      </trkpt>
      <trkpt lat="45.33467" lon="4.41321">
        <ele>959.1</ele>
      </trkpt>
      <trkpt lat="45.3346" lon="4.41322">
        <ele>958.5</ele>
      </trkpt>
      <trkpt lat="45.33452" lon="4.41323">
        <ele>957.9</ele>
      </trkpt>
      <trkpt lat="45.33446" lon="4.41323">
        <ele>957.5</ele>
      </trkpt>
      <trkpt lat="45.3344" lon="4.41323">
        <ele>957.2</ele>
      </trkpt>
      <trkpt lat="45.33434" lon="4.41323">
        <ele>956.9</ele>
      </trkpt>
      <trkpt lat="45.33427" lon="4.41323">
        <ele>956.5</ele>
      </trkpt>
      <trkpt lat="45.33421" lon="4.41323">
        <ele>956.2</ele>
      </trkpt>
      <trkpt lat="45.33404" lon="4.41322">
        <ele>954.4</ele>
      </trkpt>
      <trkpt lat="45.334" lon="4.41321">
        <ele>953.9</ele>
      </trkpt>
      <trkpt lat="45.33391" lon="4.4132">
        <ele>952.7</ele>
      </trkpt>
      <trkpt lat="45.33384" lon="4.41319">
        <ele>952</ele>
      </trkpt>
      <trkpt lat="45.33377" lon="4.41318">
        <ele>951.3</ele>
      </trkpt>
      <trkpt lat="45.33369" lon="4.41317">
        <ele>950.4</ele>
      </trkpt>
      <trkpt lat="45.33362" lon="4.41316">
        <ele>949.7</ele>
      </trkpt>
      <trkpt lat="45.33354" lon="4.41315">
        <ele>948.6</ele>
      </trkpt>
      <trkpt lat="45.33347" lon="4.41314">
        <ele>947.7</ele>
      </trkpt>
      <trkpt lat="45.33341" lon="4.41313">
        <ele>946.8</ele>
      </trkpt>
      <trkpt lat="45.33335" lon="4.41313">
        <ele>946</ele>
      </trkpt>
      <trkpt lat="45.33322" lon="4.41313">
        <ele>944.8</ele>
      </trkpt>
      <trkpt lat="45.33316" lon="4.41312">
        <ele>944.4</ele>
      </trkpt>
      <trkpt lat="45.33308" lon="4.41311">
        <ele>943.8</ele>
      </trkpt>
      <trkpt lat="45.33301" lon="4.41311">
        <ele>943.4</ele>
      </trkpt>
      <trkpt lat="45.33285" lon="4.41309">
        <ele>943</ele>
      </trkpt>
      <trkpt lat="45.33274" lon="4.41309">
        <ele>942.5</ele>
      </trkpt>
      <trkpt lat="45.3327" lon="4.41309">
        <ele>942.2</ele>
      </trkpt>
      <trkpt lat="45.33262" lon="4.41309">
        <ele>941.6</ele>
      </trkpt>
      <trkpt lat="45.33256" lon="4.41308">
        <ele>941.3</ele>
      </trkpt>
      <trkpt lat="45.33247" lon="4.41308">
        <ele>940.7</ele>
      </trkpt>
      <trkpt lat="45.33232" lon="4.41305">
        <ele>940.4</ele>
      </trkpt>
      <trkpt lat="45.33217" lon="4.41303">
        <ele>939.9</ele>
      </trkpt>
      <trkpt lat="45.3321" lon="4.41303">
        <ele>939.7</ele>
      </trkpt>
      <trkpt lat="45.33203" lon="4.41301">
        <ele>939.6</ele>
      </trkpt>
      <trkpt lat="45.33198" lon="4.41301">
        <ele>939.4</ele>
      </trkpt>
      <trkpt lat="45.33193" lon="4.413">
        <ele>939.3</ele>
      </trkpt>
      <trkpt lat="45.33189" lon="4.41298">
        <ele>939.3</ele>
      </trkpt>
      <trkpt lat="45.33188" lon="4.41297">
        <ele>939.3</ele>
      </trkpt>
      <trkpt lat="45.33185" lon="4.41296">
        <ele>939.2</ele>
      </trkpt>
      <trkpt lat="45.33181" lon="4.41293">
        <ele>939.2</ele>
      </trkpt>
      <trkpt lat="45.33178" lon="4.41289">
        <ele>939.2</ele>
      </trkpt>
      <trkpt lat="45.33174" lon="4.41284">
        <ele>939.2</ele>
      </trkpt>
      <trkpt lat="45.33171" lon="4.4128">
        <ele>939.2</ele>
      </trkpt>
      <trkpt lat="45.33167" lon="4.41273">
        <ele>939.2</ele>
      </trkpt>
      <trkpt lat="45.33164" lon="4.41267">
        <ele>939</ele>
      </trkpt>
      <trkpt lat="45.33162" lon="4.41261">
        <ele>938.9</ele>
      </trkpt>
      <trkpt lat="45.3316" lon="4.41255">
        <ele>938.7</ele>
      </trkpt>
      <trkpt lat="45.33158" lon="4.41249">
        <ele>938.4</ele>
      </trkpt>
      <trkpt lat="45.33157" lon="4.41241">
        <ele>937.9</ele>
      </trkpt>
      <trkpt lat="45.33156" lon="4.41235">
        <ele>937.5</ele>
      </trkpt>
      <trkpt lat="45.33155" lon="4.41227">
        <ele>937.1</ele>
      </trkpt>
      <trkpt lat="45.33155" lon="4.4122">
        <ele>936.7</ele>
      </trkpt>
      <trkpt lat="45.33156" lon="4.41212">
        <ele>936.2</ele>
      </trkpt>
      <trkpt lat="45.33156" lon="4.41207">
        <ele>935.8</ele>
      </trkpt>
      <trkpt lat="45.33157" lon="4.41201">
        <ele>935.5</ele>
      </trkpt>
      <trkpt lat="45.33158" lon="4.41195">
        <ele>935.2</ele>
      </trkpt>
      <trkpt lat="45.33159" lon="4.41188">
        <ele>934.5</ele>
      </trkpt>
      <trkpt lat="45.33161" lon="4.41181">
        <ele>933.9</ele>
      </trkpt>
      <trkpt lat="45.33163" lon="4.41174">
        <ele>933.4</ele>
      </trkpt>
      <trkpt lat="45.33165" lon="4.41167">
        <ele>932.7</ele>
      </trkpt>
      <trkpt lat="45.33168" lon="4.41153">
        <ele>931.8</ele>
      </trkpt>
      <trkpt lat="45.33169" lon="4.41147">
        <ele>931.3</ele>
      </trkpt>
      <trkpt lat="45.3317" lon="4.4114">
        <ele>930.7</ele>
      </trkpt>
      <trkpt lat="45.33172" lon="4.41132">
        <ele>930</ele>
      </trkpt>
      <trkpt lat="45.33175" lon="4.41124">
        <ele>929.5</ele>
        <extensions>
          <visugpx:TrkExtension xmlns:visugpx="https://www.visugpx.com/editgpx/">
            <visugpx:node>3</visugpx:node>
            </visugpx:TrkExtension>
        </extensions>
      </trkpt>
      <trkpt lat="45.33181" lon="4.4111">
        <ele>928.9</ele>
      </trkpt>
      <trkpt lat="45.33185" lon="4.41103">
        <ele>928.8</ele>
      </trkpt>
      <trkpt lat="45.33188" lon="4.41097">
        <ele>928.6</ele>
      </trkpt>
      <trkpt lat="45.33188" lon="4.41096">
        <ele>928.4</ele>
      </trkpt>
      <trkpt lat="45.33192" lon="4.4109">
        <ele>928.4</ele>
      </trkpt>
      <trkpt lat="45.33198" lon="4.41081">
        <ele>927.8</ele>
      </trkpt>
      <trkpt lat="45.33202" lon="4.41078">
        <ele>927.4</ele>
      </trkpt>
      <trkpt lat="45.33205" lon="4.41075">
        <ele>927.1</ele>
      </trkpt>
      <trkpt lat="45.33209" lon="4.41071">
        <ele>926.6</ele>
      </trkpt>
      <trkpt lat="45.33214" lon="4.41069">
        <ele>926.7</ele>
      </trkpt>
      <trkpt lat="45.33219" lon="4.41068">
        <ele>926.9</ele>
      </trkpt>
      <trkpt lat="45.33225" lon="4.41068">
        <ele>927.3</ele>
      </trkpt>
      <trkpt lat="45.33231" lon="4.41067">
        <ele>927.2</ele>
      </trkpt>
      <trkpt lat="45.33238" lon="4.41067">
        <ele>927.3</ele>
      </trkpt>
      <trkpt lat="45.33246" lon="4.41068">
        <ele>927.6</ele>
      </trkpt>
      <trkpt lat="45.33253" lon="4.41071">
        <ele>927.8</ele>
      </trkpt>
      <trkpt lat="45.33259" lon="4.41074">
        <ele>927.5</ele>
      </trkpt>
      <trkpt lat="45.33262" lon="4.41077">
        <ele>927.6</ele>
      </trkpt>
      <trkpt lat="45.33267" lon="4.4108">
        <ele>927.3</ele>
      </trkpt>
      <trkpt lat="45.33272" lon="4.41084">
        <ele>927.2</ele>
      </trkpt>
      <trkpt lat="45.33276" lon="4.41088">
        <ele>927.3</ele>
      </trkpt>
      <trkpt lat="45.3328" lon="4.41093">
        <ele>927.9</ele>
      </trkpt>
      <trkpt lat="45.33282" lon="4.41097">
        <ele>928.4</ele>
      </trkpt>
      <trkpt lat="45.33286" lon="4.41103">
        <ele>928.9</ele>
      </trkpt>
      <trkpt lat="45.3329" lon="4.41107">
        <ele>928.8</ele>
      </trkpt>
      <trkpt lat="45.33295" lon="4.4111">
        <ele>928.2</ele>
      </trkpt>
      <trkpt lat="45.333" lon="4.41111">
        <ele>927.2</ele>
      </trkpt>
      <trkpt lat="45.33303" lon="4.41111">
        <ele>926.5</ele>
      </trkpt>
      <trkpt lat="45.33306" lon="4.4111">
        <ele>926</ele>
      </trkpt>
      <trkpt lat="45.33309" lon="4.41108">
        <ele>926.4</ele>
      </trkpt>
      <trkpt lat="45.33311" lon="4.41105">
        <ele>926.6</ele>
      </trkpt>
      <trkpt lat="45.33313" lon="4.411">
        <ele>926.8</ele>
      </trkpt>
      <trkpt lat="45.33314" lon="4.41095">
        <ele>926.8</ele>
      </trkpt>
      <trkpt lat="45.33314" lon="4.41088">
        <ele>926.6</ele>
      </trkpt>
      <trkpt lat="45.33314" lon="4.41082">
        <ele>926.6</ele>
      </trkpt>
      <trkpt lat="45.33313" lon="4.41075">
        <ele>926.8</ele>
      </trkpt>
      <trkpt lat="45.33313" lon="4.41069">
        <ele>927.1</ele>
      </trkpt>
      <trkpt lat="45.33311" lon="4.4106">
        <ele>927.1</ele>
      </trkpt>
      <trkpt lat="45.33309" lon="4.41053">
        <ele>927.1</ele>
      </trkpt>
      <trkpt lat="45.33306" lon="4.41043">
        <ele>927</ele>
      </trkpt>
      <trkpt lat="45.33301" lon="4.41034">
        <ele>926.6</ele>
      </trkpt>
      <trkpt lat="45.33296" lon="4.41017">
        <ele>927.7</ele>
      </trkpt>
      <trkpt lat="45.33291" lon="4.41009">
        <ele>927.5</ele>
      </trkpt>
      <trkpt lat="45.33286" lon="4.41002">
        <ele>926.7</ele>
      </trkpt>
      <trkpt lat="45.33282" lon="4.40997">
        <ele>926.3</ele>
      </trkpt>
      <trkpt lat="45.33278" lon="4.40993">
        <ele>925.8</ele>
      </trkpt>
      <trkpt lat="45.33272" lon="4.40987">
        <ele>926</ele>
      </trkpt>
      <trkpt lat="45.33266" lon="4.40982">
        <ele>926</ele>
      </trkpt>
      <trkpt lat="45.33262" lon="4.40977">
        <ele>926.4</ele>
      </trkpt>
      <trkpt lat="45.33258" lon="4.40968">
        <ele>927</ele>
      </trkpt>
      <trkpt lat="45.33254" lon="4.4096">
        <ele>926.4</ele>
      </trkpt>
      <trkpt lat="45.33251" lon="4.40945">
        <ele>926.3</ele>
      </trkpt>
      <trkpt lat="45.33251" lon="4.40919">
        <ele>926.4</ele>
      </trkpt>
      <trkpt lat="45.33253" lon="4.40898">
        <ele>925.8</ele>
      </trkpt>
      <trkpt lat="45.33259" lon="4.4088">
        <ele>926.4</ele>
      </trkpt>
      <trkpt lat="45.33263" lon="4.40859">
        <ele>925</ele>
      </trkpt>
      <trkpt lat="45.33265" lon="4.40848">
        <ele>924.7</ele>
      </trkpt>
      <trkpt lat="45.33267" lon="4.40828">
        <ele>924.5</ele>
      </trkpt>
      <trkpt lat="45.33267" lon="4.40819">
        <ele>925.1</ele>
      </trkpt>
      <trkpt lat="45.33267" lon="4.40816">
        <ele>925.3</ele>
      </trkpt>
      <trkpt lat="45.33266" lon="4.40807">
        <ele>925.4</ele>
      </trkpt>
      <trkpt lat="45.33266" lon="4.40792">
        <ele>926</ele>
      </trkpt>
      <trkpt lat="45.33265" lon="4.40784">
        <ele>925.8</ele>
      </trkpt>
      <trkpt lat="45.33265" lon="4.40777">
        <ele>926.1</ele>
      </trkpt>
      <trkpt lat="45.33264" lon="4.40773">
        <ele>926.3</ele>
      </trkpt>
      <trkpt lat="45.33264" lon="4.40769">
        <ele>927</ele>
      </trkpt>
      <trkpt lat="45.33262" lon="4.40766">
        <ele>926.7</ele>
      </trkpt>
      <trkpt lat="45.33261" lon="4.40762">
        <ele>927</ele>
      </trkpt>
      <trkpt lat="45.33259" lon="4.40759">
        <ele>926.8</ele>
      </trkpt>
      <trkpt lat="45.33256" lon="4.40756">
        <ele>926.4</ele>
      </trkpt>
      <trkpt lat="45.33251" lon="4.40752">
        <ele>925.8</ele>
      </trkpt>
      <trkpt lat="45.33247" lon="4.40747">
        <ele>925.7</ele>
      </trkpt>
      <trkpt lat="45.33242" lon="4.40743">
        <ele>925</ele>
      </trkpt>
      <trkpt lat="45.33237" lon="4.40738">
        <ele>924.6</ele>
      </trkpt>
      <trkpt lat="45.33233" lon="4.40734">
        <ele>924.3</ele>
      </trkpt>
      <trkpt lat="45.33229" lon="4.4073">
        <ele>924.1</ele>
      </trkpt>
      <trkpt lat="45.33227" lon="4.40726">
        <ele>924.4</ele>
      </trkpt>
      <trkpt lat="45.33225" lon="4.40722">
        <ele>924.7</ele>
      </trkpt>
      <trkpt lat="45.33224" lon="4.40716">
        <ele>924</ele>
      </trkpt>
      <trkpt lat="45.33225" lon="4.40706">
        <ele>923.5</ele>
      </trkpt>
      <trkpt lat="45.33226" lon="4.40695">
        <ele>923</ele>
      </trkpt>
      <trkpt lat="45.33226" lon="4.40694">
        <ele>922.9</ele>
      </trkpt>
      <trkpt lat="45.33228" lon="4.40684">
        <ele>922.1</ele>
      </trkpt>
      <trkpt lat="45.33229" lon="4.40674">
        <ele>921.1</ele>
      </trkpt>
      <trkpt lat="45.33229" lon="4.40665">
        <ele>920</ele>
      </trkpt>
      <trkpt lat="45.3323" lon="4.40657">
        <ele>919.5</ele>
      </trkpt>
      <trkpt lat="45.3323" lon="4.40652">
        <ele>918.9</ele>
      </trkpt>
      <trkpt lat="45.3323" lon="4.40646">
        <ele>918.3</ele>
      </trkpt>
      <trkpt lat="45.33231" lon="4.40632">
        <ele>918.1</ele>
      </trkpt>
      <trkpt lat="45.3323" lon="4.40629">
        <ele>917.9</ele>
      </trkpt>
      <trkpt lat="45.3323" lon="4.40625">
        <ele>918.1</ele>
      </trkpt>
      <trkpt lat="45.33228" lon="4.40623">
        <ele>917.7</ele>
      </trkpt>
      <trkpt lat="45.33227" lon="4.40619">
        <ele>917.6</ele>
      </trkpt>
      <trkpt lat="45.33221" lon="4.40607">
        <ele>917</ele>
      </trkpt>
      <trkpt lat="45.33215" lon="4.40592">
        <ele>916.1</ele>
      </trkpt>
      <trkpt lat="45.33211" lon="4.40577">
        <ele>915.8</ele>
      </trkpt>
      <trkpt lat="45.33206" lon="4.40567">
        <ele>914.2</ele>
      </trkpt>
      <trkpt lat="45.33199" lon="4.40546">
        <ele>912.7</ele>
      </trkpt>
      <trkpt lat="45.33187" lon="4.40516">
        <ele>909.9</ele>
      </trkpt>
      <trkpt lat="45.33177" lon="4.40493">
        <ele>907.4</ele>
      </trkpt>
      <trkpt lat="45.33169" lon="4.40475">
        <ele>907.4</ele>
      </trkpt>
      <trkpt lat="45.3316" lon="4.40464">
        <ele>906</ele>
      </trkpt>
      <trkpt lat="45.33153" lon="4.40452">
        <ele>905.1</ele>
      </trkpt>
      <trkpt lat="45.33142" lon="4.4044">
        <ele>902.6</ele>
      </trkpt>
      <trkpt lat="45.33133" lon="4.40427">
        <ele>901.8</ele>
      </trkpt>
      <trkpt lat="45.33126" lon="4.40416">
        <ele>901.3</ele>
      </trkpt>
      <trkpt lat="45.33119" lon="4.40424">
        <ele>899.5</ele>
      </trkpt>
      <trkpt lat="45.33111" lon="4.40433">
        <ele>898</ele>
      </trkpt>
      <trkpt lat="45.33109" lon="4.40437">
        <ele>898.5</ele>
      </trkpt>
      <trkpt lat="45.33109" lon="4.40445">
        <ele>898.7</ele>
        <extensions>
          <visugpx:TrkExtension xmlns:visugpx="https://www.visugpx.com/editgpx/">
            <visugpx:node>4</visugpx:node>
            </visugpx:TrkExtension>
        </extensions>
      </trkpt>
      <trkpt lat="45.33113" lon="4.40468">
        <ele>900.4</ele>
      </trkpt>
      <trkpt lat="45.33114" lon="4.40486">
        <ele>902.1</ele>
      </trkpt>
      <trkpt lat="45.33114" lon="4.40499">
        <ele>903.4</ele>
      </trkpt>
      <trkpt lat="45.33115" lon="4.4051">
        <ele>905</ele>
      </trkpt>
      <trkpt lat="45.33115" lon="4.40527">
        <ele>907.9</ele>
      </trkpt>
      <trkpt lat="45.33116" lon="4.40537">
        <ele>909.3</ele>
      </trkpt>
      <trkpt lat="45.33117" lon="4.40551">
        <ele>911.2</ele>
      </trkpt>
      <trkpt lat="45.33117" lon="4.40565">
        <ele>913.2</ele>
      </trkpt>
      <trkpt lat="45.33115" lon="4.40582">
        <ele>916.3</ele>
      </trkpt>
      <trkpt lat="45.33112" lon="4.40596">
        <ele>918.1</ele>
      </trkpt>
      <trkpt lat="45.33107" lon="4.40608">
        <ele>920.6</ele>
      </trkpt>
      <trkpt lat="45.33102" lon="4.40622">
        <ele>922.3</ele>
      </trkpt>
      <trkpt lat="45.33097" lon="4.40634">
        <ele>923.9</ele>
      </trkpt>
      <trkpt lat="45.33091" lon="4.40644">
        <ele>925.5</ele>
      </trkpt>
      <trkpt lat="45.33081" lon="4.40655">
        <ele>928.7</ele>
      </trkpt>
      <trkpt lat="45.33076" lon="4.40661">
        <ele>930.1</ele>
      </trkpt>
      <trkpt lat="45.33073" lon="4.40669">
        <ele>930.6</ele>
      </trkpt>
      <trkpt lat="45.33071" lon="4.40677">
        <ele>930.9</ele>
      </trkpt>
      <trkpt lat="45.33069" lon="4.40689">
        <ele>930.7</ele>
      </trkpt>
      <trkpt lat="45.33066" lon="4.40701">
        <ele>931.1</ele>
      </trkpt>
      <trkpt lat="45.33064" lon="4.40713">
        <ele>931.2</ele>
      </trkpt>
      <trkpt lat="45.33063" lon="4.40718">
        <ele>931.3</ele>
      </trkpt>
      <trkpt lat="45.33062" lon="4.40725">
        <ele>931.4</ele>
      </trkpt>
      <trkpt lat="45.33061" lon="4.40738">
        <ele>931.4</ele>
      </trkpt>
      <trkpt lat="45.33059" lon="4.40751">
        <ele>931.8</ele>
      </trkpt>
      <trkpt lat="45.33058" lon="4.40768">
        <ele>932.7</ele>
      </trkpt>
      <trkpt lat="45.33057" lon="4.40782">
        <ele>933.3</ele>
      </trkpt>
      <trkpt lat="45.33057" lon="4.40799">
        <ele>932.7</ele>
      </trkpt>
      <trkpt lat="45.33056" lon="4.40812">
        <ele>932.6</ele>
      </trkpt>
      <trkpt lat="45.33055" lon="4.40827">
        <ele>932.4</ele>
      </trkpt>
      <trkpt lat="45.33054" lon="4.40839">
        <ele>932.5</ele>
      </trkpt>
      <trkpt lat="45.33054" lon="4.40852">
        <ele>932.5</ele>
      </trkpt>
      <trkpt lat="45.33054" lon="4.40861">
        <ele>932.4</ele>
      </trkpt>
      <trkpt lat="45.33054" lon="4.40869">
        <ele>932.4</ele>
      </trkpt>
      <trkpt lat="45.33054" lon="4.40881">
        <ele>932.4</ele>
      </trkpt>
      <trkpt lat="45.33054" lon="4.40891">
        <ele>932.3</ele>
      </trkpt>
      <trkpt lat="45.33055" lon="4.40901">
        <ele>931.7</ele>
      </trkpt>
      <trkpt lat="45.33055" lon="4.40913">
        <ele>931.3</ele>
      </trkpt>
      <trkpt lat="45.33055" lon="4.40921">
        <ele>931</ele>
      </trkpt>
      <trkpt lat="45.33054" lon="4.4093">
        <ele>930.9</ele>
      </trkpt>
      <trkpt lat="45.33053" lon="4.40938">
        <ele>930.8</ele>
      </trkpt>
      <trkpt lat="45.33053" lon="4.40961">
        <ele>928.8</ele>
      </trkpt>
      <trkpt lat="45.33049" lon="4.40971">
        <ele>928.5</ele>
      </trkpt>
      <trkpt lat="45.33042" lon="4.40983">
        <ele>928.8</ele>
      </trkpt>
      <trkpt lat="45.33034" lon="4.40993">
        <ele>929.4</ele>
      </trkpt>
      <trkpt lat="45.33015" lon="4.41009">
        <ele>930.2</ele>
      </trkpt>
      <trkpt lat="45.32992" lon="4.41023">
        <ele>929.3</ele>
      </trkpt>
      <trkpt lat="45.32974" lon="4.4103">
        <ele>927.9</ele>
      </trkpt>
      <trkpt lat="45.32968" lon="4.41036">
        <ele>928.6</ele>
      </trkpt>
      <trkpt lat="45.32966" lon="4.41042">
        <ele>929</ele>
      </trkpt>
      <trkpt lat="45.32966" lon="4.41049">
        <ele>928.9</ele>
      </trkpt>
      <trkpt lat="45.32968" lon="4.41055">
        <ele>928.2</ele>
      </trkpt>
      <trkpt lat="45.32971" lon="4.41061">
        <ele>928.1</ele>
      </trkpt>
      <trkpt lat="45.32982" lon="4.41085">
        <ele>928.7</ele>
      </trkpt>
      <trkpt lat="45.32986" lon="4.41096">
        <ele>928.7</ele>
      </trkpt>
      <trkpt lat="45.32988" lon="4.41107">
        <ele>929.2</ele>
      </trkpt>
      <trkpt lat="45.32989" lon="4.41113">
        <ele>929.2</ele>
      </trkpt>
      <trkpt lat="45.32988" lon="4.41122">
        <ele>928.8</ele>
      </trkpt>
      <trkpt lat="45.32984" lon="4.41133">
        <ele>929</ele>
      </trkpt>
      <trkpt lat="45.3298" lon="4.41143">
        <ele>929.1</ele>
      </trkpt>
      <trkpt lat="45.32972" lon="4.41157">
        <ele>929.4</ele>
      </trkpt>
      <trkpt lat="45.3296" lon="4.41172">
        <ele>929.2</ele>
      </trkpt>
      <trkpt lat="45.32946" lon="4.41185">
        <ele>930</ele>
      </trkpt>
      <trkpt lat="45.3293" lon="4.412">
        <ele>929.8</ele>
      </trkpt>
      <trkpt lat="45.3291" lon="4.41212">
        <ele>929.8</ele>
      </trkpt>
      <trkpt lat="45.32897" lon="4.4122">
        <ele>930.1</ele>
      </trkpt>
      <trkpt lat="45.32894" lon="4.41222">
        <ele>930.1</ele>
        <extensions>
          <visugpx:TrkExtension xmlns:visugpx="https://www.visugpx.com/editgpx/">
            <visugpx:node>5</visugpx:node>
            </visugpx:TrkExtension>
        </extensions>
      </trkpt>
      <trkpt lat="45.32897" lon="4.4122">
        <ele>930.1</ele>
      </trkpt>
      <trkpt lat="45.3289" lon="4.41224">
        <ele>930.4</ele>
      </trkpt>
      <trkpt lat="45.32883" lon="4.41231">
        <ele>930.2</ele>
      </trkpt>
      <trkpt lat="45.3287" lon="4.41245">
        <ele>930.5</ele>
      </trkpt>
      <trkpt lat="45.32866" lon="4.41255">
        <ele>929.8</ele>
      </trkpt>
      <trkpt lat="45.32859" lon="4.41267">
        <ele>930.2</ele>
      </trkpt>
      <trkpt lat="45.32824" lon="4.41308">
        <ele>934</ele>
      </trkpt>
      <trkpt lat="45.32799" lon="4.41362">
        <ele>931.6</ele>
      </trkpt>
      <trkpt lat="45.32786" lon="4.41414">
        <ele>932</ele>
      </trkpt>
      <trkpt lat="45.32779" lon="4.41442">
        <ele>931.9</ele>
      </trkpt>
      <trkpt lat="45.3276" lon="4.41504">
        <ele>931.5</ele>
      </trkpt>
      <trkpt lat="45.3271" lon="4.41619">
        <ele>930.6</ele>
      </trkpt>
      <trkpt lat="45.32709" lon="4.4162">
        <ele>930.6</ele>
      </trkpt>
      <trkpt lat="45.32691" lon="4.41648">
        <ele>929.4</ele>
      </trkpt>
      <trkpt lat="45.32688" lon="4.41654">
        <ele>929.3</ele>
      </trkpt>
      <trkpt lat="45.32685" lon="4.41662">
        <ele>929.3</ele>
      </trkpt>
      <trkpt lat="45.32685" lon="4.41667">
        <ele>929.1</ele>
        <extensions>
          <visugpx:TrkExtension xmlns:visugpx="https://www.visugpx.com/editgpx/">
            <visugpx:node>6</visugpx:node>
            </visugpx:TrkExtension>
        </extensions>
      </trkpt>
      <trkpt lat="45.32686" lon="4.41678">
        <ele>929.4</ele>
      </trkpt>
      <trkpt lat="45.32686" lon="4.417">
        <ele>930</ele>
      </trkpt>
      <trkpt lat="45.32687" lon="4.4171">
        <ele>929.6</ele>
      </trkpt>
      <trkpt lat="45.32684" lon="4.41729">
        <ele>929.5</ele>
      </trkpt>
      <trkpt lat="45.32679" lon="4.41738">
        <ele>929.6</ele>
      </trkpt>
      <trkpt lat="45.32669" lon="4.41751">
        <ele>929.6</ele>
      </trkpt>
      <trkpt lat="45.32658" lon="4.41769">
        <ele>929.6</ele>
      </trkpt>
      <trkpt lat="45.32651" lon="4.4178">
        <ele>930.5</ele>
      </trkpt>
      <trkpt lat="45.32651" lon="4.41789">
        <ele>930.8</ele>
      </trkpt>
      <trkpt lat="45.32653" lon="4.41795">
        <ele>930.6</ele>
      </trkpt>
      <trkpt lat="45.32658" lon="4.41809">
        <ele>930</ele>
      </trkpt>
      <trkpt lat="45.32659" lon="4.41812">
        <ele>929.9</ele>
      </trkpt>
      <trkpt lat="45.32661" lon="4.41819">
        <ele>929.7</ele>
      </trkpt>
      <trkpt lat="45.32662" lon="4.41827">
        <ele>929.8</ele>
      </trkpt>
      <trkpt lat="45.32665" lon="4.41834">
        <ele>929.4</ele>
      </trkpt>
      <trkpt lat="45.32667" lon="4.4184">
        <ele>928.9</ele>
      </trkpt>
      <trkpt lat="45.32668" lon="4.41842">
        <ele>928.8</ele>
      </trkpt>
      <trkpt lat="45.32661" lon="4.41842">
        <ele>930.2</ele>
      </trkpt>
      <trkpt lat="45.32657" lon="4.4184">
        <ele>931</ele>
      </trkpt>
      <trkpt lat="45.32651" lon="4.41835">
        <ele>932.4</ele>
      </trkpt>
      <trkpt lat="45.3265" lon="4.41834">
        <ele>932.6</ele>
      </trkpt>
      <trkpt lat="45.32635" lon="4.41803">
        <ele>934.9</ele>
      </trkpt>
      <trkpt lat="45.32633" lon="4.41799">
        <ele>935.3</ele>
      </trkpt>
      <trkpt lat="45.32633" lon="4.41799">
        <ele>935.3</ele>
        <extensions>
          <visugpx:TrkExtension xmlns:visugpx="https://www.visugpx.com/editgpx/">
            <visugpx:node>7</visugpx:node>
            </visugpx:TrkExtension>
        </extensions>
      </trkpt>
      <trkpt lat="45.32633" lon="4.41799">
        <ele>935.3</ele>
      </trkpt>
      <trkpt lat="45.32635" lon="4.41803">
        <ele>934.9</ele>
      </trkpt>
      <trkpt lat="45.3265" lon="4.41834">
        <ele>932.6</ele>
      </trkpt>
      <trkpt lat="45.32651" lon="4.41835">
        <ele>932.4</ele>
      </trkpt>
      <trkpt lat="45.32657" lon="4.4184">
        <ele>931</ele>
      </trkpt>
      <trkpt lat="45.32661" lon="4.41842">
        <ele>930.2</ele>
      </trkpt>
      <trkpt lat="45.32668" lon="4.41842">
        <ele>928.8</ele>
      </trkpt>
      <trkpt lat="45.32669" lon="4.41846">
        <ele>928.6</ele>
      </trkpt>
      <trkpt lat="45.32671" lon="4.41853">
        <ele>928.2</ele>
      </trkpt>
      <trkpt lat="45.32671" lon="4.41857">
        <ele>928.2</ele>
      </trkpt>
      <trkpt lat="45.32669" lon="4.41866">
        <ele>928.2</ele>
      </trkpt>
      <trkpt lat="45.32665" lon="4.41875">
        <ele>928.3</ele>
      </trkpt>
      <trkpt lat="45.3266" lon="4.41882">
        <ele>928.5</ele>
      </trkpt>
      <trkpt lat="45.32653" lon="4.4189">
        <ele>928.8</ele>
      </trkpt>
      <trkpt lat="45.32646" lon="4.41897">
        <ele>928.7</ele>
      </trkpt>
      <trkpt lat="45.32641" lon="4.41899">
        <ele>928.9</ele>
      </trkpt>
      <trkpt lat="45.32635" lon="4.41901">
        <ele>929.3</ele>
      </trkpt>
      <trkpt lat="45.32629" lon="4.41903">
        <ele>929.5</ele>
      </trkpt>
      <trkpt lat="45.32622" lon="4.41905">
        <ele>929.8</ele>
      </trkpt>
      <trkpt lat="45.32615" lon="4.41908">
        <ele>929.8</ele>
      </trkpt>
      <trkpt lat="45.32609" lon="4.41912">
        <ele>929.5</ele>
      </trkpt>
      <trkpt lat="45.32603" lon="4.41915">
        <ele>929.6</ele>
      </trkpt>
      <trkpt lat="45.32597" lon="4.41918">
        <ele>929.7</ele>
      </trkpt>
      <trkpt lat="45.32591" lon="4.41922">
        <ele>929.6</ele>
      </trkpt>
      <trkpt lat="45.32585" lon="4.41925">
        <ele>929.7</ele>
      </trkpt>
      <trkpt lat="45.32581" lon="4.41929">
        <ele>929.4</ele>
      </trkpt>
      <trkpt lat="45.32575" lon="4.41935">
        <ele>929.3</ele>
      </trkpt>
      <trkpt lat="45.3257" lon="4.4194">
        <ele>929.1</ele>
      </trkpt>
      <trkpt lat="45.32565" lon="4.41946">
        <ele>928.7</ele>
      </trkpt>
      <trkpt lat="45.32559" lon="4.41952">
        <ele>928.7</ele>
      </trkpt>
      <trkpt lat="45.32549" lon="4.41965">
        <ele>926.7</ele>
      </trkpt>
      <trkpt lat="45.32546" lon="4.41973">
        <ele>925.4</ele>
      </trkpt>
      <trkpt lat="45.32545" lon="4.41978">
        <ele>925.5</ele>
      </trkpt>
      <trkpt lat="45.32544" lon="4.41982">
        <ele>925.6</ele>
      </trkpt>
      <trkpt lat="45.32543" lon="4.41989">
        <ele>925.9</ele>
      </trkpt>
      <trkpt lat="45.32542" lon="4.41997">
        <ele>926.3</ele>
      </trkpt>
      <trkpt lat="45.32542" lon="4.42004">
        <ele>926.2</ele>
      </trkpt>
      <trkpt lat="45.32542" lon="4.42006">
        <ele>926</ele>
      </trkpt>
      <trkpt lat="45.32542" lon="4.42011">
        <ele>925.6</ele>
      </trkpt>
      <trkpt lat="45.32541" lon="4.42018">
        <ele>925.3</ele>
      </trkpt>
      <trkpt lat="45.3254" lon="4.42025">
        <ele>925</ele>
      </trkpt>
      <trkpt lat="45.32538" lon="4.42032">
        <ele>924.8</ele>
      </trkpt>
      <trkpt lat="45.32538" lon="4.4204">
        <ele>924</ele>
      </trkpt>
      <trkpt lat="45.32538" lon="4.42047">
        <ele>923.4</ele>
      </trkpt>
      <trkpt lat="45.32539" lon="4.42053">
        <ele>922.8</ele>
      </trkpt>
      <trkpt lat="45.3254" lon="4.42057">
        <ele>922.8</ele>
      </trkpt>
      <trkpt lat="45.32543" lon="4.42061">
        <ele>923.5</ele>
      </trkpt>
      <trkpt lat="45.32547" lon="4.42063">
        <ele>923.8</ele>
      </trkpt>
      <trkpt lat="45.3255" lon="4.42065">
        <ele>924.1</ele>
      </trkpt>
      <trkpt lat="45.32555" lon="4.42066">
        <ele>924.3</ele>
      </trkpt>
      <trkpt lat="45.3256" lon="4.42066">
        <ele>924.7</ele>
      </trkpt>
      <trkpt lat="45.32564" lon="4.42066">
        <ele>925.2</ele>
      </trkpt>
      <trkpt lat="45.32569" lon="4.42065">
        <ele>925.5</ele>
      </trkpt>
      <trkpt lat="45.32574" lon="4.42063">
        <ele>925.6</ele>
      </trkpt>
      <trkpt lat="45.32579" lon="4.42061">
        <ele>925.7</ele>
      </trkpt>
      <trkpt lat="45.32586" lon="4.4206">
        <ele>926.1</ele>
      </trkpt>
      <trkpt lat="45.32592" lon="4.42058">
        <ele>926.1</ele>
      </trkpt>
      <trkpt lat="45.32598" lon="4.42058">
        <ele>926.4</ele>
      </trkpt>
      <trkpt lat="45.32603" lon="4.42057">
        <ele>926.6</ele>
      </trkpt>
      <trkpt lat="45.32607" lon="4.42056">
        <ele>926.8</ele>
      </trkpt>
      <trkpt lat="45.32612" lon="4.42057">
        <ele>927.1</ele>
      </trkpt>
      <trkpt lat="45.32615" lon="4.42058">
        <ele>927</ele>
      </trkpt>
      <trkpt lat="45.32617" lon="4.4206">
        <ele>927</ele>
      </trkpt>
      <trkpt lat="45.32618" lon="4.42061">
        <ele>927</ele>
      </trkpt>
      <trkpt lat="45.32621" lon="4.42065">
        <ele>927.1</ele>
      </trkpt>
      <trkpt lat="45.32625" lon="4.42071">
        <ele>927.1</ele>
      </trkpt>
      <trkpt lat="45.32628" lon="4.42077">
        <ele>927.2</ele>
      </trkpt>
      <trkpt lat="45.3263" lon="4.42083">
        <ele>927.3</ele>
      </trkpt>
      <trkpt lat="45.32634" lon="4.42089">
        <ele>926.9</ele>
      </trkpt>
      <trkpt lat="45.32636" lon="4.42095">
        <ele>926.9</ele>
      </trkpt>
      <trkpt lat="45.32638" lon="4.42103">
        <ele>926.9</ele>
      </trkpt>
      <trkpt lat="45.32639" lon="4.4211">
        <ele>926.9</ele>
      </trkpt>
      <trkpt lat="45.32639" lon="4.42117">
        <ele>927</ele>
      </trkpt>
      <trkpt lat="45.32638" lon="4.42125">
        <ele>927.2</ele>
      </trkpt>
      <trkpt lat="45.32638" lon="4.4213">
        <ele>927.2</ele>
      </trkpt>
      <trkpt lat="45.32636" lon="4.42139">
        <ele>927.6</ele>
      </trkpt>
      <trkpt lat="45.32634" lon="4.42147">
        <ele>927.6</ele>
      </trkpt>
      <trkpt lat="45.32632" lon="4.42156">
        <ele>927.6</ele>
      </trkpt>
      <trkpt lat="45.3263" lon="4.42166">
        <ele>927.6</ele>
      </trkpt>
      <trkpt lat="45.32627" lon="4.42176">
        <ele>927.7</ele>
      </trkpt>
      <trkpt lat="45.32624" lon="4.42187">
        <ele>927.9</ele>
      </trkpt>
      <trkpt lat="45.3262" lon="4.42197">
        <ele>928.5</ele>
      </trkpt>
      <trkpt lat="45.32617" lon="4.42209">
        <ele>927.9</ele>
      </trkpt>
      <trkpt lat="45.32614" lon="4.42221">
        <ele>927.2</ele>
      </trkpt>
      <trkpt lat="45.3261" lon="4.42232">
        <ele>927.7</ele>
      </trkpt>
      <trkpt lat="45.32604" lon="4.42256">
        <ele>927.9</ele>
      </trkpt>
      <trkpt lat="45.32602" lon="4.42266">
        <ele>927.8</ele>
      </trkpt>
      <trkpt lat="45.326" lon="4.42274">
        <ele>927.9</ele>
      </trkpt>
      <trkpt lat="45.326" lon="4.42282">
        <ele>927.3</ele>
      </trkpt>
      <trkpt lat="45.32599" lon="4.42289">
        <ele>927</ele>
      </trkpt>
      <trkpt lat="45.32599" lon="4.42296">
        <ele>926.4</ele>
      </trkpt>
      <trkpt lat="45.326" lon="4.42302">
        <ele>925.7</ele>
      </trkpt>
      <trkpt lat="45.326" lon="4.42302">
        <ele>925.7</ele>
      </trkpt>
      <trkpt lat="45.326" lon="4.42304">
        <ele>925.5</ele>
        <extensions>
          <visugpx:TrkExtension xmlns:visugpx="https://www.visugpx.com/editgpx/">
            <visugpx:node>8</visugpx:node>
            </visugpx:TrkExtension>
        </extensions>
      </trkpt>
      <trkpt lat="45.326" lon="4.42307">
        <ele>925.3</ele>
      </trkpt>
      <trkpt lat="45.32602" lon="4.42312">
        <ele>924.8</ele>
      </trkpt>
      <trkpt lat="45.32604" lon="4.42316">
        <ele>924.4</ele>
      </trkpt>
      <trkpt lat="45.32607" lon="4.42319">
        <ele>924</ele>
      </trkpt>
      <trkpt lat="45.32611" lon="4.42323">
        <ele>923.6</ele>
      </trkpt>
      <trkpt lat="45.32615" lon="4.42327">
        <ele>923.7</ele>
      </trkpt>
      <trkpt lat="45.32619" lon="4.42329">
        <ele>923.8</ele>
      </trkpt>
      <trkpt lat="45.32623" lon="4.42332">
        <ele>923.9</ele>
      </trkpt>
      <trkpt lat="45.32628" lon="4.42334">
        <ele>924</ele>
      </trkpt>
      <trkpt lat="45.32632" lon="4.42334">
        <ele>924</ele>
      </trkpt>
      <trkpt lat="45.32636" lon="4.42335">
        <ele>924.1</ele>
      </trkpt>
      <trkpt lat="45.32642" lon="4.42335">
        <ele>924.1</ele>
      </trkpt>
      <trkpt lat="45.32647" lon="4.42336">
        <ele>924.2</ele>
      </trkpt>
      <trkpt lat="45.32652" lon="4.42338">
        <ele>924.3</ele>
      </trkpt>
      <trkpt lat="45.32656" lon="4.42341">
        <ele>924.4</ele>
      </trkpt>
      <trkpt lat="45.3266" lon="4.42344">
        <ele>924.5</ele>
      </trkpt>
      <trkpt lat="45.32663" lon="4.42349">
        <ele>924.6</ele>
      </trkpt>
      <trkpt lat="45.32665" lon="4.42354">
        <ele>924.8</ele>
      </trkpt>
      <trkpt lat="45.32668" lon="4.42359">
        <ele>924.8</ele>
      </trkpt>
      <trkpt lat="45.3267" lon="4.42362">
        <ele>924.8</ele>
      </trkpt>
      <trkpt lat="45.32672" lon="4.42365">
        <ele>924.8</ele>
      </trkpt>
      <trkpt lat="45.32676" lon="4.4237">
        <ele>924.6</ele>
      </trkpt>
      <trkpt lat="45.3268" lon="4.42374">
        <ele>924.5</ele>
      </trkpt>
      <trkpt lat="45.32685" lon="4.42378">
        <ele>924.3</ele>
      </trkpt>
      <trkpt lat="45.32691" lon="4.42381">
        <ele>924</ele>
      </trkpt>
      <trkpt lat="45.32697" lon="4.42384">
        <ele>923.7</ele>
      </trkpt>
      <trkpt lat="45.32703" lon="4.42386">
        <ele>923.5</ele>
      </trkpt>
      <trkpt lat="45.32709" lon="4.42388">
        <ele>923.4</ele>
      </trkpt>
      <trkpt lat="45.32714" lon="4.42389">
        <ele>923.3</ele>
      </trkpt>
      <trkpt lat="45.32721" lon="4.42391">
        <ele>923.1</ele>
      </trkpt>
      <trkpt lat="45.32727" lon="4.42393">
        <ele>922.7</ele>
      </trkpt>
      <trkpt lat="45.32733" lon="4.42394">
        <ele>922.1</ele>
      </trkpt>
      <trkpt lat="45.32739" lon="4.42396">
        <ele>921.6</ele>
      </trkpt>
      <trkpt lat="45.32752" lon="4.42399">
        <ele>920.6</ele>
      </trkpt>
      <trkpt lat="45.32758" lon="4.42401">
        <ele>920.3</ele>
      </trkpt>
      <trkpt lat="45.32764" lon="4.42403">
        <ele>920</ele>
      </trkpt>
      <trkpt lat="45.3277" lon="4.42405">
        <ele>919.7</ele>
      </trkpt>
      <trkpt lat="45.32776" lon="4.42408">
        <ele>919.5</ele>
      </trkpt>
      <trkpt lat="45.32781" lon="4.42412">
        <ele>919.5</ele>
      </trkpt>
      <trkpt lat="45.32787" lon="4.42414">
        <ele>919.5</ele>
      </trkpt>
      <trkpt lat="45.3279" lon="4.42415">
        <ele>919.4</ele>
      </trkpt>
      <trkpt lat="45.32793" lon="4.42416">
        <ele>919.4</ele>
      </trkpt>
      <trkpt lat="45.32799" lon="4.42419">
        <ele>919.4</ele>
      </trkpt>
      <trkpt lat="45.32807" lon="4.42422">
        <ele>919.1</ele>
      </trkpt>
      <trkpt lat="45.32809" lon="4.42423">
        <ele>919.1</ele>
      </trkpt>
      <trkpt lat="45.32814" lon="4.42425">
        <ele>919</ele>
      </trkpt>
      <trkpt lat="45.32826" lon="4.42431">
        <ele>918.8</ele>
      </trkpt>
      <trkpt lat="45.32833" lon="4.42434">
        <ele>918.6</ele>
      </trkpt>
      <trkpt lat="45.32845" lon="4.42442">
        <ele>918.5</ele>
      </trkpt>
      <trkpt lat="45.32852" lon="4.42445">
        <ele>918.4</ele>
      </trkpt>
      <trkpt lat="45.32859" lon="4.42447">
        <ele>918.4</ele>
      </trkpt>
      <trkpt lat="45.32865" lon="4.4245">
        <ele>918.7</ele>
      </trkpt>
      <trkpt lat="45.32872" lon="4.42452">
        <ele>918.8</ele>
      </trkpt>
      <trkpt lat="45.32882" lon="4.42455">
        <ele>919.1</ele>
      </trkpt>
      <trkpt lat="45.32891" lon="4.42457">
        <ele>919.3</ele>
      </trkpt>
      <trkpt lat="45.32901" lon="4.42459">
        <ele>919.6</ele>
      </trkpt>
      <trkpt lat="45.32909" lon="4.42461">
        <ele>920</ele>
      </trkpt>
      <trkpt lat="45.32919" lon="4.42463">
        <ele>920.2</ele>
      </trkpt>
      <trkpt lat="45.3293" lon="4.42466">
        <ele>920.1</ele>
      </trkpt>
      <trkpt lat="45.3294" lon="4.42467">
        <ele>919.7</ele>
      </trkpt>
      <trkpt lat="45.3295" lon="4.42468">
        <ele>919.7</ele>
      </trkpt>
      <trkpt lat="45.32962" lon="4.42469">
        <ele>920.3</ele>
      </trkpt>
      <trkpt lat="45.3297" lon="4.42463">
        <ele>919.9</ele>
      </trkpt>
      <trkpt lat="45.32974" lon="4.42461">
        <ele>919.8</ele>
      </trkpt>
      <trkpt lat="45.32981" lon="4.42459">
        <ele>919.7</ele>
      </trkpt>
      <trkpt lat="45.3299" lon="4.42455">
        <ele>919.4</ele>
      </trkpt>
      <trkpt lat="45.32998" lon="4.42447">
        <ele>918.4</ele>
      </trkpt>
      <trkpt lat="45.33007" lon="4.42444">
        <ele>918.5</ele>
      </trkpt>
      <trkpt lat="45.33025" lon="4.42438">
        <ele>919.4</ele>
      </trkpt>
      <trkpt lat="45.33043" lon="4.4243">
        <ele>920</ele>
      </trkpt>
      <trkpt lat="45.3306" lon="4.42417">
        <ele>919.5</ele>
      </trkpt>
      <trkpt lat="45.33077" lon="4.42398">
        <ele>919.6</ele>
      </trkpt>
      <trkpt lat="45.33089" lon="4.42381">
        <ele>919.3</ele>
      </trkpt>
      <trkpt lat="45.33091" lon="4.42375">
        <ele>919.2</ele>
      </trkpt>
      <trkpt lat="45.33094" lon="4.42368">
        <ele>919.1</ele>
      </trkpt>
      <trkpt lat="45.33097" lon="4.42361">
        <ele>919</ele>
      </trkpt>
      <trkpt lat="45.331" lon="4.42355">
        <ele>919.1</ele>
      </trkpt>
      <trkpt lat="45.33104" lon="4.42349">
        <ele>919.2</ele>
      </trkpt>
      <trkpt lat="45.33107" lon="4.42343">
        <ele>919.1</ele>
      </trkpt>
      <trkpt lat="45.33111" lon="4.42338">
        <ele>919.2</ele>
      </trkpt>
      <trkpt lat="45.33114" lon="4.42335">
        <ele>919.2</ele>
      </trkpt>
      <trkpt lat="45.33117" lon="4.42333">
        <ele>919.2</ele>
      </trkpt>
      <trkpt lat="45.3312" lon="4.42332">
        <ele>919.3</ele>
      </trkpt>
      <trkpt lat="45.33122" lon="4.4233">
        <ele>919.3</ele>
      </trkpt>
      <trkpt lat="45.33126" lon="4.42325">
        <ele>919.4</ele>
      </trkpt>
      <trkpt lat="45.33128" lon="4.42321">
        <ele>919.3</ele>
      </trkpt>
      <trkpt lat="45.3313" lon="4.42317">
        <ele>919.3</ele>
      </trkpt>
      <trkpt lat="45.33131" lon="4.42312">
        <ele>919.2</ele>
      </trkpt>
      <trkpt lat="45.33134" lon="4.42307">
        <ele>919</ele>
      </trkpt>
      <trkpt lat="45.33135" lon="4.42305">
        <ele>919</ele>
      </trkpt>
      <trkpt lat="45.33138" lon="4.42301">
        <ele>919</ele>
      </trkpt>
      <trkpt lat="45.33141" lon="4.42296">
        <ele>919</ele>
      </trkpt>
      <trkpt lat="45.33144" lon="4.42291">
        <ele>919</ele>
      </trkpt>
      <trkpt lat="45.33148" lon="4.42285">
        <ele>919</ele>
      </trkpt>
      <trkpt lat="45.33151" lon="4.42279">
        <ele>919</ele>
      </trkpt>
      <trkpt lat="45.33154" lon="4.42274">
        <ele>919</ele>
      </trkpt>
      <trkpt lat="45.33156" lon="4.4227">
        <ele>919</ele>
      </trkpt>
      <trkpt lat="45.33157" lon="4.42267">
        <ele>919</ele>
      </trkpt>
      <trkpt lat="45.33158" lon="4.42263">
        <ele>919</ele>
      </trkpt>
      <trkpt lat="45.33159" lon="4.42254">
        <ele>919</ele>
      </trkpt>
      <trkpt lat="45.33159" lon="4.42246">
        <ele>919</ele>
      </trkpt>
      <trkpt lat="45.33161" lon="4.4223">
        <ele>919</ele>
      </trkpt>
      <trkpt lat="45.33161" lon="4.42211">
        <ele>919</ele>
      </trkpt>
      <trkpt lat="45.33161" lon="4.42197">
        <ele>919</ele>
      </trkpt>
      <trkpt lat="45.33162" lon="4.4219">
        <ele>919.1</ele>
      </trkpt>
      <trkpt lat="45.33161" lon="4.42185">
        <ele>919.2</ele>
      </trkpt>
      <trkpt lat="45.3316" lon="4.42181">
        <ele>919.3</ele>
      </trkpt>
      <trkpt lat="45.33157" lon="4.42178">
        <ele>919.6</ele>
      </trkpt>
      <trkpt lat="45.33155" lon="4.42174">
        <ele>919.9</ele>
      </trkpt>
      <trkpt lat="45.33151" lon="4.42172">
        <ele>920.4</ele>
      </trkpt>
      <trkpt lat="45.33149" lon="4.42171">
        <ele>920.6</ele>
      </trkpt>
      <trkpt lat="45.33147" lon="4.4217">
        <ele>920.9</ele>
      </trkpt>
      <trkpt lat="45.33145" lon="4.42169">
        <ele>921.1</ele>
      </trkpt>
      <trkpt lat="45.33143" lon="4.42167">
        <ele>921.5</ele>
      </trkpt>
      <trkpt lat="45.33144" lon="4.42163">
        <ele>922.5</ele>
      </trkpt>
      <trkpt lat="45.33145" lon="4.4216">
        <ele>923.3</ele>
      </trkpt>
      <trkpt lat="45.33146" lon="4.42159">
        <ele>923.4</ele>
      </trkpt>
      <trkpt lat="45.33146" lon="4.42159">
        <ele>923.4</ele>
        <extensions>
          <visugpx:TrkExtension xmlns:visugpx="https://www.visugpx.com/editgpx/">
            <visugpx:node>9</visugpx:node>
            </visugpx:TrkExtension>
        </extensions>
      </trkpt>
      <trkpt lat="45.33146" lon="4.42159">
        <ele>923.4</ele>
      </trkpt>
      <trkpt lat="45.33148" lon="4.42156">
        <ele>924</ele>
      </trkpt>
      <trkpt lat="45.33151" lon="4.42153">
        <ele>924.3</ele>
      </trkpt>
      <trkpt lat="45.33154" lon="4.4215">
        <ele>924.5</ele>
      </trkpt>
      <trkpt lat="45.33162" lon="4.42144">
        <ele>924.1</ele>
      </trkpt>
      <trkpt lat="45.33165" lon="4.42142">
        <ele>923.8</ele>
      </trkpt>
      <trkpt lat="45.3317" lon="4.4214">
        <ele>923.3</ele>
      </trkpt>
      <trkpt lat="45.33175" lon="4.42138">
        <ele>923.1</ele>
      </trkpt>
      <trkpt lat="45.33181" lon="4.42135">
        <ele>923.2</ele>
      </trkpt>
      <trkpt lat="45.33187" lon="4.42132">
        <ele>923.2</ele>
      </trkpt>
      <trkpt lat="45.33193" lon="4.42128">
        <ele>923.4</ele>
      </trkpt>
      <trkpt lat="45.332" lon="4.42124">
        <ele>923.9</ele>
      </trkpt>
      <trkpt lat="45.33207" lon="4.42121">
        <ele>924</ele>
      </trkpt>
      <trkpt lat="45.33214" lon="4.42118">
        <ele>923.9</ele>
      </trkpt>
      <trkpt lat="45.33221" lon="4.42116">
        <ele>923.4</ele>
      </trkpt>
      <trkpt lat="45.33227" lon="4.42114">
        <ele>923.3</ele>
      </trkpt>
      <trkpt lat="45.33233" lon="4.42112">
        <ele>923.1</ele>
      </trkpt>
      <trkpt lat="45.33239" lon="4.42111">
        <ele>922.8</ele>
      </trkpt>
      <trkpt lat="45.33247" lon="4.4211">
        <ele>922.6</ele>
      </trkpt>
      <trkpt lat="45.33253" lon="4.4211">
        <ele>922.6</ele>
      </trkpt>
      <trkpt lat="45.33259" lon="4.4211">
        <ele>923</ele>
      </trkpt>
      <trkpt lat="45.33264" lon="4.42112">
        <ele>922.9</ele>
      </trkpt>
      <trkpt lat="45.3327" lon="4.42113">
        <ele>923.2</ele>
      </trkpt>
      <trkpt lat="45.33277" lon="4.42115">
        <ele>923.4</ele>
      </trkpt>
      <trkpt lat="45.33282" lon="4.42117">
        <ele>923.8</ele>
      </trkpt>
      <trkpt lat="45.33289" lon="4.42119">
        <ele>924.4</ele>
      </trkpt>
      <trkpt lat="45.33295" lon="4.42122">
        <ele>924.6</ele>
      </trkpt>
      <trkpt lat="45.33302" lon="4.42125">
        <ele>924.6</ele>
      </trkpt>
      <trkpt lat="45.33309" lon="4.42128">
        <ele>924.5</ele>
      </trkpt>
      <trkpt lat="45.33316" lon="4.42132">
        <ele>924</ele>
      </trkpt>
      <trkpt lat="45.33323" lon="4.42135">
        <ele>923.6</ele>
      </trkpt>
      <trkpt lat="45.33326" lon="4.42137">
        <ele>923.2</ele>
      </trkpt>
      <trkpt lat="45.3333" lon="4.42139">
        <ele>922.8</ele>
      </trkpt>
      <trkpt lat="45.3334" lon="4.42145">
        <ele>924</ele>
      </trkpt>
      <trkpt lat="45.33346" lon="4.42149">
        <ele>924.6</ele>
      </trkpt>
      <trkpt lat="45.33351" lon="4.42153">
        <ele>924.8</ele>
      </trkpt>
      <trkpt lat="45.33357" lon="4.42157">
        <ele>924.9</ele>
      </trkpt>
      <trkpt lat="45.33363" lon="4.42162">
        <ele>924.6</ele>
      </trkpt>
      <trkpt lat="45.33368" lon="4.42166">
        <ele>924.9</ele>
      </trkpt>
      <trkpt lat="45.33374" lon="4.42172">
        <ele>925.4</ele>
      </trkpt>
      <trkpt lat="45.33379" lon="4.42179">
        <ele>925.2</ele>
      </trkpt>
      <trkpt lat="45.33385" lon="4.42186">
        <ele>924.6</ele>
      </trkpt>
      <trkpt lat="45.3339" lon="4.42192">
        <ele>923.9</ele>
      </trkpt>
      <trkpt lat="45.33396" lon="4.42198">
        <ele>924.4</ele>
      </trkpt>
      <trkpt lat="45.33402" lon="4.42206">
        <ele>924.7</ele>
      </trkpt>
      <trkpt lat="45.33407" lon="4.42215">
        <ele>924.2</ele>
      </trkpt>
      <trkpt lat="45.33414" lon="4.42222">
        <ele>923.8</ele>
      </trkpt>
      <trkpt lat="45.33416" lon="4.42224">
        <ele>923.8</ele>
      </trkpt>
      <trkpt lat="45.33418" lon="4.42226">
        <ele>923.8</ele>
      </trkpt>
      <trkpt lat="45.3342" lon="4.42227">
        <ele>923.9</ele>
      </trkpt>
      <trkpt lat="45.33423" lon="4.42228">
        <ele>924</ele>
      </trkpt>
      <trkpt lat="45.33425" lon="4.42228">
        <ele>924.2</ele>
      </trkpt>
      <trkpt lat="45.33428" lon="4.42228">
        <ele>924.4</ele>
      </trkpt>
      <trkpt lat="45.33431" lon="4.42227">
        <ele>924.7</ele>
      </trkpt>
      <trkpt lat="45.33433" lon="4.42226">
        <ele>924.9</ele>
      </trkpt>
      <trkpt lat="45.33437" lon="4.42223">
        <ele>925.4</ele>
      </trkpt>
      <trkpt lat="45.33439" lon="4.42221">
        <ele>925.8</ele>
      </trkpt>
      <trkpt lat="45.3344" lon="4.4222">
        <ele>926.1</ele>
      </trkpt>
      <trkpt lat="45.33443" lon="4.42217">
        <ele>926.8</ele>
      </trkpt>
      <trkpt lat="45.33448" lon="4.42213">
        <ele>927.4</ele>
      </trkpt>
      <trkpt lat="45.33453" lon="4.4221">
        <ele>927.6</ele>
      </trkpt>
      <trkpt lat="45.33456" lon="4.42207">
        <ele>927.9</ele>
      </trkpt>
      <trkpt lat="45.3346" lon="4.42203">
        <ele>928.1</ele>
      </trkpt>
      <trkpt lat="45.33464" lon="4.42198">
        <ele>928.4</ele>
      </trkpt>
      <trkpt lat="45.33467" lon="4.42193">
        <ele>928.7</ele>
      </trkpt>
      <trkpt lat="45.33473" lon="4.42184">
        <ele>929.1</ele>
      </trkpt>
      <trkpt lat="45.33476" lon="4.42179">
        <ele>929.3</ele>
      </trkpt>
      <trkpt lat="45.3348" lon="4.42167">
        <ele>930.1</ele>
      </trkpt>
      <trkpt lat="45.33482" lon="4.42163">
        <ele>930.3</ele>
      </trkpt>
      <trkpt lat="45.33484" lon="4.42157">
        <ele>930.7</ele>
      </trkpt>
      <trkpt lat="45.33485" lon="4.42153">
        <ele>930.9</ele>
      </trkpt>
      <trkpt lat="45.33489" lon="4.42146">
        <ele>930.8</ele>
      </trkpt>
      <trkpt lat="45.33493" lon="4.42141">
        <ele>930.4</ele>
      </trkpt>
      <trkpt lat="45.335" lon="4.42132">
        <ele>930</ele>
      </trkpt>
      <trkpt lat="45.33504" lon="4.42126">
        <ele>930.4</ele>
      </trkpt>
      <trkpt lat="45.33506" lon="4.42122">
        <ele>930.6</ele>
      </trkpt>
      <trkpt lat="45.33509" lon="4.42117">
        <ele>930.7</ele>
      </trkpt>
      <trkpt lat="45.33512" lon="4.42113">
        <ele>930.7</ele>
      </trkpt>
      <trkpt lat="45.33517" lon="4.42101">
        <ele>930.8</ele>
      </trkpt>
      <trkpt lat="45.33519" lon="4.42094">
        <ele>931</ele>
      </trkpt>
      <trkpt lat="45.33522" lon="4.42088">
        <ele>930.9</ele>
      </trkpt>
      <trkpt lat="45.33524" lon="4.42084">
        <ele>930.8</ele>
      </trkpt>
      <trkpt lat="45.33528" lon="4.42074">
        <ele>930.7</ele>
      </trkpt>
      <trkpt lat="45.3353" lon="4.42068">
        <ele>931</ele>
      </trkpt>
      <trkpt lat="45.33531" lon="4.42063">
        <ele>931.3</ele>
      </trkpt>
      <trkpt lat="45.33533" lon="4.42057">
        <ele>931.7</ele>
      </trkpt>
      <trkpt lat="45.33537" lon="4.42042">
        <ele>932.5</ele>
      </trkpt>
      <trkpt lat="45.33539" lon="4.42036">
        <ele>932.7</ele>
      </trkpt>
      <trkpt lat="45.33541" lon="4.42029">
        <ele>933</ele>
      </trkpt>
      <trkpt lat="45.33544" lon="4.42021">
        <ele>933.6</ele>
      </trkpt>
      <trkpt lat="45.33548" lon="4.42014">
        <ele>934</ele>
      </trkpt>
      <trkpt lat="45.33551" lon="4.42009">
        <ele>934.4</ele>
      </trkpt>
      <trkpt lat="45.33554" lon="4.42005">
        <ele>934.6</ele>
      </trkpt>
      <trkpt lat="45.33557" lon="4.42002">
        <ele>934.7</ele>
      </trkpt>
      <trkpt lat="45.33565" lon="4.41996">
        <ele>935.2</ele>
      </trkpt>
      <trkpt lat="45.33578" lon="4.41992">
        <ele>935.3</ele>
      </trkpt>
      <trkpt lat="45.33585" lon="4.41991">
        <ele>935.3</ele>
      </trkpt>
      <trkpt lat="45.3359" lon="4.41991">
        <ele>935.2</ele>
      </trkpt>
      <trkpt lat="45.336" lon="4.41988">
        <ele>935.5</ele>
      </trkpt>
      <trkpt lat="45.33603" lon="4.41987">
        <ele>935.5</ele>
      </trkpt>
      <trkpt lat="45.33612" lon="4.41981">
        <ele>936</ele>
      </trkpt>
      <trkpt lat="45.33617" lon="4.41977">
        <ele>936.3</ele>
      </trkpt>
      <trkpt lat="45.33621" lon="4.41973">
        <ele>936.6</ele>
      </trkpt>
      <trkpt lat="45.33626" lon="4.41969">
        <ele>936.8</ele>
      </trkpt>
      <trkpt lat="45.3363" lon="4.41965">
        <ele>937.1</ele>
      </trkpt>
      <trkpt lat="45.33634" lon="4.41961">
        <ele>937.4</ele>
      </trkpt>
      <trkpt lat="45.33639" lon="4.41957">
        <ele>937.6</ele>
      </trkpt>
      <trkpt lat="45.33644" lon="4.41953">
        <ele>937.9</ele>
      </trkpt>
      <trkpt lat="45.33649" lon="4.41951">
        <ele>938</ele>
      </trkpt>
      <trkpt lat="45.33654" lon="4.41949">
        <ele>938.1</ele>
      </trkpt>
      <trkpt lat="45.33659" lon="4.41947">
        <ele>938.1</ele>
      </trkpt>
      <trkpt lat="45.33664" lon="4.41947">
        <ele>937.9</ele>
      </trkpt>
      <trkpt lat="45.33674" lon="4.41946">
        <ele>938.2</ele>
      </trkpt>
      <trkpt lat="45.3368" lon="4.41946">
        <ele>938.4</ele>
      </trkpt>
      <trkpt lat="45.33685" lon="4.41946">
        <ele>938.5</ele>
      </trkpt>
      <trkpt lat="45.33691" lon="4.41946">
        <ele>938.8</ele>
      </trkpt>
      <trkpt lat="45.33696" lon="4.41945">
        <ele>939</ele>
      </trkpt>
      <trkpt lat="45.33704" lon="4.41945">
        <ele>939</ele>
      </trkpt>
      <trkpt lat="45.3371" lon="4.41944">
        <ele>939</ele>
      </trkpt>
      <trkpt lat="45.33716" lon="4.41944">
        <ele>939.1</ele>
      </trkpt>
      <trkpt lat="45.33721" lon="4.41944">
        <ele>939.1</ele>
      </trkpt>
      <trkpt lat="45.33726" lon="4.41944">
        <ele>939.6</ele>
      </trkpt>
      <trkpt lat="45.33731" lon="4.41945">
        <ele>940.2</ele>
      </trkpt>
      <trkpt lat="45.33741" lon="4.41946">
        <ele>941.4</ele>
      </trkpt>
      <trkpt lat="45.33746" lon="4.41947">
        <ele>941.9</ele>
      </trkpt>
      <trkpt lat="45.33751" lon="4.41946">
        <ele>942.7</ele>
      </trkpt>
      <trkpt lat="45.33763" lon="4.41945">
        <ele>942.9</ele>
      </trkpt>
      <trkpt lat="45.33769" lon="4.41944">
        <ele>943.1</ele>
      </trkpt>
      <trkpt lat="45.33774" lon="4.41943">
        <ele>943.2</ele>
      </trkpt>
      <trkpt lat="45.33779" lon="4.41941">
        <ele>943.4</ele>
      </trkpt>
      <trkpt lat="45.33785" lon="4.41939">
        <ele>943.3</ele>
      </trkpt>
      <trkpt lat="45.33791" lon="4.41936">
        <ele>943.4</ele>
      </trkpt>
      <trkpt lat="45.33796" lon="4.41932">
        <ele>943.8</ele>
      </trkpt>
      <trkpt lat="45.33804" lon="4.41927">
        <ele>944.2</ele>
      </trkpt>
      <trkpt lat="45.33807" lon="4.41925">
        <ele>944.5</ele>
      </trkpt>
      <trkpt lat="45.33811" lon="4.41922">
        <ele>944.8</ele>
      </trkpt>
      <trkpt lat="45.33815" lon="4.41918">
        <ele>945.2</ele>
      </trkpt>
      <trkpt lat="45.33818" lon="4.41916">
        <ele>945.1</ele>
      </trkpt>
      <trkpt lat="45.33821" lon="4.41914">
        <ele>945</ele>
      </trkpt>
      <trkpt lat="45.33823" lon="4.41912">
        <ele>944.9</ele>
      </trkpt>
      <trkpt lat="45.33826" lon="4.41912">
        <ele>944.6</ele>
      </trkpt>
      <trkpt lat="45.33828" lon="4.41912">
        <ele>944.4</ele>
      </trkpt>
      <trkpt lat="45.3383" lon="4.41912">
        <ele>944.3</ele>
      </trkpt>
      <trkpt lat="45.33832" lon="4.41912">
        <ele>944.1</ele>
      </trkpt>
      <trkpt lat="45.33836" lon="4.41913">
        <ele>944.3</ele>
      </trkpt>
      <trkpt lat="45.33839" lon="4.41913">
        <ele>944.6</ele>
        <extensions>
          <visugpx:TrkExtension xmlns:visugpx="https://www.visugpx.com/editgpx/">
            <visugpx:node>10</visugpx:node>
            </visugpx:TrkExtension>
        </extensions>
      </trkpt>
      <trkpt lat="45.33843" lon="4.41904">
        <ele>945</ele>
      </trkpt>
      <trkpt lat="45.3385" lon="4.41889">
        <ele>945.8</ele>
      </trkpt>
      <trkpt lat="45.33857" lon="4.41869">
        <ele>947.5</ele>
      </trkpt>
      <trkpt lat="45.33861" lon="4.41857">
        <ele>948</ele>
      </trkpt>
      <trkpt lat="45.33864" lon="4.41845">
        <ele>948.5</ele>
      </trkpt>
      <trkpt lat="45.33865" lon="4.41836">
        <ele>948.6</ele>
      </trkpt>
      <trkpt lat="45.33866" lon="4.41826">
        <ele>949.6</ele>
      </trkpt>
      <trkpt lat="45.33866" lon="4.41816">
        <ele>950.8</ele>
      </trkpt>
      <trkpt lat="45.33866" lon="4.41808">
        <ele>951.7</ele>
      </trkpt>
      <trkpt lat="45.33866" lon="4.418">
        <ele>952.2</ele>
      </trkpt>
      <trkpt lat="45.33866" lon="4.41794">
        <ele>952.5</ele>
      </trkpt>
      <trkpt lat="45.33868" lon="4.4179">
        <ele>952.7</ele>
      </trkpt>
      <trkpt lat="45.33869" lon="4.41788">
        <ele>952.8</ele>
      </trkpt>
      <trkpt lat="45.33871" lon="4.41784">
        <ele>953.1</ele>
      </trkpt>
      <trkpt lat="45.33875" lon="4.41779">
        <ele>953.4</ele>
      </trkpt>
      <trkpt lat="45.3388" lon="4.41773">
        <ele>954.1</ele>
      </trkpt>
      <trkpt lat="45.3389" lon="4.41761">
        <ele>955.2</ele>
      </trkpt>
      <trkpt lat="45.33895" lon="4.41757">
        <ele>955.6</ele>
      </trkpt>
      <trkpt lat="45.33893" lon="4.41755">
        <ele>955.7</ele>
      </trkpt>
      <trkpt lat="45.33892" lon="4.41753">
        <ele>955.8</ele>
      </trkpt>
      <trkpt lat="45.33891" lon="4.4175">
        <ele>956</ele>
      </trkpt>
      <trkpt lat="45.33891" lon="4.41748">
        <ele>956.1</ele>
      </trkpt>
      <trkpt lat="45.3389" lon="4.41745">
        <ele>956.2</ele>
      </trkpt>
      <trkpt lat="45.33891" lon="4.41741">
        <ele>956.3</ele>
      </trkpt>
      <trkpt lat="45.33891" lon="4.41739">
        <ele>956.4</ele>
      </trkpt>
      <trkpt lat="45.33892" lon="4.41737">
        <ele>956.4</ele>
      </trkpt>
      <trkpt lat="45.33893" lon="4.41735">
        <ele>956.5</ele>
      </trkpt>
      <trkpt lat="45.33895" lon="4.41733">
        <ele>956.5</ele>
      </trkpt>
      <trkpt lat="45.33897" lon="4.41732">
        <ele>956.5</ele>
      </trkpt>
      <trkpt lat="45.33898" lon="4.41732">
        <ele>956.4</ele>
      </trkpt>
      <trkpt lat="45.33898" lon="4.41732">
        <ele>956.4</ele>
      </trkpt>
      <trkpt lat="45.339" lon="4.41731">
        <ele>956.4</ele>
      </trkpt>
      <trkpt lat="45.33902" lon="4.41732">
        <ele>956.3</ele>
        <extensions>
          <visugpx:TrkExtension xmlns:visugpx="https://www.visugpx.com/editgpx/">
            <visugpx:node>11</visugpx:node>
            </visugpx:TrkExtension>
        </extensions>
      </trkpt>
      <trkpt lat="45.33898" lon="4.41732">
        <ele>956.4</ele>
      </trkpt>
      <trkpt lat="45.33898" lon="4.41732">
        <ele>956.4</ele>
      </trkpt>
      <trkpt lat="45.339" lon="4.41731">
        <ele>956.4</ele>
      </trkpt>
      <trkpt lat="45.33902" lon="4.41732">
        <ele>956.3</ele>
      </trkpt>
      <trkpt lat="45.33904" lon="4.41732">
        <ele>956.3</ele>
      </trkpt>
      <trkpt lat="45.33906" lon="4.41734">
        <ele>956.2</ele>
      </trkpt>
      <trkpt lat="45.33907" lon="4.41735">
        <ele>956.2</ele>
      </trkpt>
      <trkpt lat="45.33915" lon="4.41727">
        <ele>956</ele>
      </trkpt>
      <trkpt lat="45.3392" lon="4.41721">
        <ele>956.1</ele>
      </trkpt>
      <trkpt lat="45.33929" lon="4.41714">
        <ele>956.6</ele>
      </trkpt>
      <trkpt lat="45.33935" lon="4.41708">
        <ele>956.9</ele>
      </trkpt>
      <trkpt lat="45.33948" lon="4.41697">
        <ele>956.9</ele>
      </trkpt>
      <trkpt lat="45.33952" lon="4.41692">
        <ele>957.2</ele>
      </trkpt>
      <trkpt lat="45.33955" lon="4.41691">
        <ele>957.2</ele>
      </trkpt>
      <trkpt lat="45.33959" lon="4.41687">
        <ele>957.4</ele>
      </trkpt>
      <trkpt lat="45.33965" lon="4.41687">
        <ele>957.2</ele>
        <extensions>
          <visugpx:TrkExtension xmlns:visugpx="https://www.visugpx.com/editgpx/">
            <visugpx:node>12</visugpx:node>
            </visugpx:TrkExtension>
        </extensions>
      </trkpt>
      <trkpt lat="45.33969" lon="4.41689">
        <ele>957.1</ele>
      </trkpt>
      <trkpt lat="45.33974" lon="4.41695">
        <ele>957.1</ele>
      </trkpt>
      <trkpt lat="45.33984" lon="4.41712">
        <ele>957.2</ele>
      </trkpt>
      <trkpt lat="45.33996" lon="4.41731">
        <ele>957.7</ele>
      </trkpt>
      <trkpt lat="45.34013" lon="4.41754">
        <ele>958.5</ele>
      </trkpt>
      <trkpt lat="45.34036" lon="4.4179">
        <ele>960</ele>
      </trkpt>
      <trkpt lat="45.34045" lon="4.41802">
        <ele>960.3</ele>
      </trkpt>
      <trkpt lat="45.34048" lon="4.41807">
        <ele>960.5</ele>
      </trkpt>
      <trkpt lat="45.34053" lon="4.41811">
        <ele>961</ele>
      </trkpt>
      <trkpt lat="45.34061" lon="4.41815">
        <ele>961.7</ele>
      </trkpt>
      <trkpt lat="45.34076" lon="4.41823">
        <ele>962.6</ele>
      </trkpt>
      <trkpt lat="45.34091" lon="4.41831">
        <ele>963.5</ele>
      </trkpt>
      <trkpt lat="45.34115" lon="4.41844">
        <ele>965.4</ele>
      </trkpt>
      <trkpt lat="45.34124" lon="4.41846">
        <ele>966.4</ele>
      </trkpt>
      <trkpt lat="45.34134" lon="4.41846">
        <ele>967.5</ele>
      </trkpt>
      <trkpt lat="45.34137" lon="4.41844">
        <ele>967.8</ele>
      </trkpt>
      <trkpt lat="45.34143" lon="4.41841">
        <ele>968</ele>
      </trkpt>
      <trkpt lat="45.3415" lon="4.41835">
        <ele>968</ele>
      </trkpt>
      <trkpt lat="45.34156" lon="4.41826">
        <ele>968.4</ele>
      </trkpt>
      <trkpt lat="45.34162" lon="4.41818">
        <ele>968.6</ele>
      </trkpt>
      <trkpt lat="45.34168" lon="4.41808">
        <ele>969</ele>
      </trkpt>
      <trkpt lat="45.34174" lon="4.41798">
        <ele>969.5</ele>
      </trkpt>
      <trkpt lat="45.3418" lon="4.41789">
        <ele>970.1</ele>
      </trkpt>
      <trkpt lat="45.34186" lon="4.4178">
        <ele>970.6</ele>
      </trkpt>
      <trkpt lat="45.34192" lon="4.41772">
        <ele>971.5</ele>
      </trkpt>
      <trkpt lat="45.34199" lon="4.41764">
        <ele>972.4</ele>
      </trkpt>
      <trkpt lat="45.34203" lon="4.4176">
        <ele>972.7</ele>
      </trkpt>
      <trkpt lat="45.3421" lon="4.41755">
        <ele>973</ele>
      </trkpt>
      <trkpt lat="45.34226" lon="4.41744">
        <ele>973.5</ele>
      </trkpt>
      <trkpt lat="45.34234" lon="4.41737">
        <ele>974.2</ele>
      </trkpt>
      <trkpt lat="45.34241" lon="4.41732">
        <ele>974.5</ele>
      </trkpt>
      <trkpt lat="45.34249" lon="4.41726">
        <ele>974.9</ele>
      </trkpt>
      <trkpt lat="45.34265" lon="4.41714">
        <ele>975.5</ele>
      </trkpt>
      <trkpt lat="45.34279" lon="4.41705">
        <ele>976.1</ele>
      </trkpt>
      <trkpt lat="45.34287" lon="4.41701">
        <ele>976.5</ele>
      </trkpt>
      <trkpt lat="45.34293" lon="4.41697">
        <ele>977</ele>
      </trkpt>
      <trkpt lat="45.34298" lon="4.41696">
        <ele>977.4</ele>
      </trkpt>
      <trkpt lat="45.34303" lon="4.41695">
        <ele>977.8</ele>
      </trkpt>
      <trkpt lat="45.34306" lon="4.41695">
        <ele>978</ele>
      </trkpt>
      <trkpt lat="45.3431" lon="4.41695">
        <ele>978.6</ele>
      </trkpt>
      <trkpt lat="45.34315" lon="4.41697">
        <ele>979.1</ele>
      </trkpt>
      <trkpt lat="45.34322" lon="4.41702">
        <ele>979.7</ele>
      </trkpt>
      <trkpt lat="45.34328" lon="4.41706">
        <ele>980.1</ele>
      </trkpt>
      <trkpt lat="45.34333" lon="4.4171">
        <ele>980.3</ele>
      </trkpt>
      <trkpt lat="45.34337" lon="4.41712">
        <ele>980.3</ele>
      </trkpt>
      <trkpt lat="45.34342" lon="4.41714">
        <ele>980.4</ele>
      </trkpt>
      <trkpt lat="45.34348" lon="4.41717">
        <ele>980.5</ele>
      </trkpt>
      <trkpt lat="45.34357" lon="4.4172">
        <ele>980.9</ele>
      </trkpt>
      <trkpt lat="45.34363" lon="4.41721">
        <ele>981.1</ele>
      </trkpt>
      <trkpt lat="45.34367" lon="4.4172">
        <ele>981.2</ele>
      </trkpt>
      <trkpt lat="45.3438" lon="4.41713">
        <ele>982.3</ele>
      </trkpt>
      <trkpt lat="45.34387" lon="4.4171">
        <ele>983.1</ele>
      </trkpt>
      <trkpt lat="45.34397" lon="4.41706">
        <ele>984.2</ele>
      </trkpt>
      <trkpt lat="45.34403" lon="4.41705">
        <ele>984.6</ele>
      </trkpt>
      <trkpt lat="45.34408" lon="4.41703">
        <ele>985.1</ele>
      </trkpt>
      <trkpt lat="45.3442" lon="4.41701">
        <ele>985.9</ele>
      </trkpt>
      <trkpt lat="45.34431" lon="4.41699">
        <ele>986.4</ele>
      </trkpt>
      <trkpt lat="45.34448" lon="4.41698">
        <ele>986.7</ele>
      </trkpt>
      <trkpt lat="45.3446" lon="4.41698">
        <ele>986.7</ele>
      </trkpt>
      <trkpt lat="45.34466" lon="4.41699">
        <ele>986.5</ele>
      </trkpt>
      <trkpt lat="45.34474" lon="4.417">
        <ele>986.5</ele>
      </trkpt>
      <trkpt lat="45.34487" lon="4.41691">
        <ele>988.6</ele>
      </trkpt>
      <trkpt lat="45.345" lon="4.41685">
        <ele>990.4</ele>
      </trkpt>
      <trkpt lat="45.34506" lon="4.41682">
        <ele>990.9</ele>
      </trkpt>
      <trkpt lat="45.34514" lon="4.41677">
        <ele>991.7</ele>
      </trkpt>
      <trkpt lat="45.34521" lon="4.41672">
        <ele>992.4</ele>
      </trkpt>
      <trkpt lat="45.34527" lon="4.41665">
        <ele>993.3</ele>
      </trkpt>
      <trkpt lat="45.34528" lon="4.4166">
        <ele>994.2</ele>
      </trkpt>
      <trkpt lat="45.34526" lon="4.41653">
        <ele>995.5</ele>
      </trkpt>
      <trkpt lat="45.34518" lon="4.41648">
        <ele>996.4</ele>
      </trkpt>
      <trkpt lat="45.34509" lon="4.41643">
        <ele>997.3</ele>
      </trkpt>
      <trkpt lat="45.34502" lon="4.4164">
        <ele>997.8</ele>
      </trkpt>
      <trkpt lat="45.34495" lon="4.41636">
        <ele>998.5</ele>
      </trkpt>
      <trkpt lat="45.34486" lon="4.41632">
        <ele>999.1</ele>
      </trkpt>
      <trkpt lat="45.3448" lon="4.41628">
        <ele>999.7</ele>
      </trkpt>
      <trkpt lat="45.34477" lon="4.41625">
        <ele>1000.1</ele>
      </trkpt>
      <trkpt lat="45.34475" lon="4.41622">
        <ele>1000.5</ele>
      </trkpt>
      <trkpt lat="45.34473" lon="4.41618">
        <ele>1001</ele>
      </trkpt>
      <trkpt lat="45.34474" lon="4.41614">
        <ele>1001.6</ele>
      </trkpt>
      <trkpt lat="45.34475" lon="4.41615">
        <ele>1001.5</ele>
      </trkpt>
      <trkpt lat="45.34481" lon="4.41613">
        <ele>1002</ele>
      </trkpt>
      <trkpt lat="45.34485" lon="4.41613">
        <ele>1002.2</ele>
      </trkpt>
      <trkpt lat="45.34491" lon="4.4161">
        <ele>1002.8</ele>
      </trkpt>
      <trkpt lat="45.34498" lon="4.41605">
        <ele>1003.8</ele>
      </trkpt>
      <trkpt lat="45.34504" lon="4.41601">
        <ele>1004.4</ele>
      </trkpt>
      <trkpt lat="45.34509" lon="4.41596">
        <ele>1005</ele>
      </trkpt>
      <trkpt lat="45.34514" lon="4.41591">
        <ele>1005.5</ele>
      </trkpt>
      <trkpt lat="45.34521" lon="4.41583">
        <ele>1006.3</ele>
      </trkpt>
      <trkpt lat="45.34527" lon="4.41574">
        <ele>1007.4</ele>
      </trkpt>
      <trkpt lat="45.34531" lon="4.41567">
        <ele>1008.2</ele>
      </trkpt>
      <trkpt lat="45.34534" lon="4.41563">
        <ele>1008.7</ele>
      </trkpt>
      <trkpt lat="45.34539" lon="4.41555">
        <ele>1009.6</ele>
      </trkpt>
      <trkpt lat="45.34542" lon="4.41547">
        <ele>1009.9</ele>
      </trkpt>
      <trkpt lat="45.34548" lon="4.41537">
        <ele>1010.1</ele>
      </trkpt>
      <trkpt lat="45.34553" lon="4.41528">
        <ele>1010.2</ele>
      </trkpt>
      <trkpt lat="45.34556" lon="4.4152">
        <ele>1010.5</ele>
      </trkpt>
      <trkpt lat="45.3456" lon="4.41511">
        <ele>1010.9</ele>
      </trkpt>
      <trkpt lat="45.34564" lon="4.41504">
        <ele>1011.1</ele>
      </trkpt>
      <trkpt lat="45.34567" lon="4.41498">
        <ele>1011.4</ele>
      </trkpt>
      <trkpt lat="45.3457" lon="4.41493">
        <ele>1011.6</ele>
      </trkpt>
      <trkpt lat="45.34576" lon="4.41483">
        <ele>1011.9</ele>
      </trkpt>
      <trkpt lat="45.34584" lon="4.4147">
        <ele>1012</ele>
      </trkpt>
      <trkpt lat="45.34593" lon="4.41453">
        <ele>1011.9</ele>
      </trkpt>
      <trkpt lat="45.34598" lon="4.41446">
        <ele>1011.7</ele>
      </trkpt>
      <trkpt lat="45.34598" lon="4.41446">
        <ele>1011.7</ele>
        <extensions>
          <visugpx:TrkExtension xmlns:visugpx="https://www.visugpx.com/editgpx/">
            <visugpx:node>13</visugpx:node>
            </visugpx:TrkExtension>
        </extensions>
      </trkpt>
      <trkpt lat="45.34603" lon="4.4144">
        <ele>1011.7</ele>
      </trkpt>
      <trkpt lat="45.3461" lon="4.4143">
        <ele>1012.2</ele>
      </trkpt>
      <trkpt lat="45.34615" lon="4.41422">
        <ele>1012.6</ele>
      </trkpt>
      <trkpt lat="45.34621" lon="4.41412">
        <ele>1013.1</ele>
      </trkpt>
      <trkpt lat="45.34626" lon="4.414">
        <ele>1014</ele>
      </trkpt>
      <trkpt lat="45.34631" lon="4.41391">
        <ele>1014.6</ele>
      </trkpt>
      <trkpt lat="45.34636" lon="4.4138">
        <ele>1015.3</ele>
      </trkpt>
      <trkpt lat="45.34644" lon="4.41362">
        <ele>1016.2</ele>
      </trkpt>
      <trkpt lat="45.34647" lon="4.41354">
        <ele>1016.6</ele>
      </trkpt>
      <trkpt lat="45.34655" lon="4.41335">
        <ele>1017.5</ele>
      </trkpt>
      <trkpt lat="45.34659" lon="4.41323">
        <ele>1017.6</ele>
      </trkpt>
      <trkpt lat="45.34667" lon="4.41304">
        <ele>1017.1</ele>
      </trkpt>
      <trkpt lat="45.34672" lon="4.41291">
        <ele>1017</ele>
      </trkpt>
      <trkpt lat="45.34677" lon="4.41279">
        <ele>1016.7</ele>
      </trkpt>
      <trkpt lat="45.34682" lon="4.41266">
        <ele>1016.3</ele>
      </trkpt>
      <trkpt lat="45.34686" lon="4.41258">
        <ele>1016</ele>
      </trkpt>
      <trkpt lat="45.34689" lon="4.41252">
        <ele>1015.9</ele>
      </trkpt>
      <trkpt lat="45.34693" lon="4.41241">
        <ele>1015.9</ele>
      </trkpt>
      <trkpt lat="45.34701" lon="4.41223">
        <ele>1015.8</ele>
      </trkpt>
      <trkpt lat="45.34708" lon="4.41208">
        <ele>1015.3</ele>
      </trkpt>
      <trkpt lat="45.34717" lon="4.41185">
        <ele>1015.4</ele>
      </trkpt>
      <trkpt lat="45.34724" lon="4.41168">
        <ele>1015.8</ele>
      </trkpt>
      <trkpt lat="45.34729" lon="4.41154">
        <ele>1016.3</ele>
      </trkpt>
      <trkpt lat="45.34743" lon="4.41115">
        <ele>1016.6</ele>
      </trkpt>
      <trkpt lat="45.34751" lon="4.41094">
        <ele>1016.6</ele>
      </trkpt>
      <trkpt lat="45.34756" lon="4.41082">
        <ele>1017.1</ele>
      </trkpt>
      <trkpt lat="45.3476" lon="4.41066">
        <ele>1017.8</ele>
      </trkpt>
      <trkpt lat="45.34764" lon="4.41047">
        <ele>1018.1</ele>
      </trkpt>
      <trkpt lat="45.34767" lon="4.41033">
        <ele>1018.1</ele>
      </trkpt>
      <trkpt lat="45.34769" lon="4.41023">
        <ele>1017.8</ele>
      </trkpt>
      <trkpt lat="45.34771" lon="4.41014">
        <ele>1017.2</ele>
      </trkpt>
      <trkpt lat="45.34773" lon="4.41006">
        <ele>1016.7</ele>
      </trkpt>
      <trkpt lat="45.34778" lon="4.40993">
        <ele>1015.8</ele>
      </trkpt>
      <trkpt lat="45.3478" lon="4.40986">
        <ele>1015.5</ele>
      </trkpt>
      <trkpt lat="45.34784" lon="4.40979">
        <ele>1015.3</ele>
      </trkpt>
      <trkpt lat="45.34787" lon="4.40973">
        <ele>1015</ele>
      </trkpt>
      <trkpt lat="45.34789" lon="4.40972">
        <ele>1015</ele>
      </trkpt>
      <trkpt lat="45.34793" lon="4.40968">
        <ele>1014.8</ele>
      </trkpt>
      <trkpt lat="45.348" lon="4.40962">
        <ele>1014.3</ele>
      </trkpt>
      <trkpt lat="45.34804" lon="4.40959">
        <ele>1014.1</ele>
      </trkpt>
      <trkpt lat="45.34809" lon="4.40956">
        <ele>1014.2</ele>
      </trkpt>
      <trkpt lat="45.34813" lon="4.40953">
        <ele>1014.3</ele>
      </trkpt>
      <trkpt lat="45.34813" lon="4.40953">
        <ele>1014.3</ele>
        <extensions>
          <visugpx:TrkExtension xmlns:visugpx="https://www.visugpx.com/editgpx/">
            <visugpx:node>14</visugpx:node>
            </visugpx:TrkExtension>
        </extensions>
      </trkpt>
      <trkpt lat="45.34862" lon="4.40939">
        <ele>1023</ele>
        <time>2024-07-15T10:39:41Z</time>
        <extensions>
          <visugpx:TrkExtension xmlns:visugpx="https://www.visugpx.com/editgpx/">
            <visugpx:node>15</visugpx:node>
            </visugpx:TrkExtension>
        </extensions>
      </trkpt>
      <trkpt lat="45.34855" lon="4.40949">
        <ele>1022</ele>
        <time>2024-07-15T10:39:33Z</time>
      </trkpt>
      <trkpt lat="45.34848" lon="4.40967">
        <ele>1022</ele>
        <time>2024-07-15T10:39:22Z</time>
      </trkpt>
      <trkpt lat="45.34845" lon="4.40984">
        <ele>1023</ele>
        <time>2024-07-15T10:39:12Z</time>
      </trkpt>
      <trkpt lat="45.34848" lon="4.41021">
        <ele>1024</ele>
        <time>2024-07-15T10:38:51Z</time>
      </trkpt>
      <trkpt lat="45.34862" lon="4.41096">
        <ele>1030</ele>
        <time>2024-07-15T10:38:07Z</time>
      </trkpt>
      <trkpt lat="45.34887" lon="4.41181">
        <ele>1036</ele>
        <time>2024-07-15T10:37:15Z</time>
      </trkpt>
      <trkpt lat="45.349" lon="4.41217">
        <ele>1038</ele>
        <time>2024-07-15T10:36:53Z</time>
      </trkpt>
      <trkpt lat="45.34902" lon="4.41222">
        <ele>1038</ele>
        <time>2024-07-15T10:36:49Z</time>
      </trkpt>
      <trkpt lat="45.35002" lon="4.41156">
        <ele>1052</ele>
        <time>2024-07-15T10:35:21Z</time>
      </trkpt>
      <trkpt lat="45.35008" lon="4.41151">
        <ele>1052</ele>
        <time>2024-07-15T10:35:16Z</time>
      </trkpt>
      <trkpt lat="45.35032" lon="4.41125">
        <ele>1052</ele>
        <time>2024-07-15T10:34:51Z</time>
      </trkpt>
      <trkpt lat="45.35089" lon="4.41052">
        <ele>1052</ele>
        <time>2024-07-15T10:33:50Z</time>
      </trkpt>
      <trkpt lat="45.35111" lon="4.41025">
        <ele>1051</ele>
        <time>2024-07-15T10:33:27Z</time>
      </trkpt>
      <trkpt lat="45.35253" lon="4.40907">
        <ele>1041</ele>
        <time>2024-07-15T10:31:15Z</time>
      </trkpt>
      <trkpt lat="45.35291" lon="4.40876">
        <ele>1040</ele>
        <time>2024-07-15T10:30:40Z</time>
      </trkpt>
      <trkpt lat="45.35323" lon="4.40852">
        <ele>1040</ele>
        <time>2024-07-15T10:30:11Z</time>
      </trkpt>
      <trkpt lat="45.35339" lon="4.40836">
        <ele>1040</ele>
        <time>2024-07-15T10:29:55Z</time>
      </trkpt>
      <trkpt lat="45.35336" lon="4.40839">
        <ele>1040</ele>
        <time>2024-07-15T10:29:52Z</time>
      </trkpt>
      <trkpt lat="45.35329" lon="4.4081">
        <ele>1039</ele>
        <time>2024-07-15T10:29:35Z</time>
      </trkpt>
      <trkpt lat="45.35352" lon="4.40698">
        <ele>1034</ele>
        <time>2024-07-15T10:28:30Z</time>
      </trkpt>
      <trkpt lat="45.35352" lon="4.40622">
        <ele>1029</ele>
        <time>2024-07-15T10:27:47Z</time>
      </trkpt>
      <trkpt lat="45.35362" lon="4.40502">
        <ele>1017</ele>
        <time>2024-07-15T10:26:39Z</time>
      </trkpt>
      <trkpt lat="45.35364" lon="4.40478">
        <ele>1014</ele>
        <time>2024-07-15T10:26:25Z</time>
      </trkpt>
      <trkpt lat="45.35371" lon="4.40488">
        <ele>1015</ele>
        <time>2024-07-15T10:26:17Z</time>
      </trkpt>
      <trkpt lat="45.35364" lon="4.40478">
        <ele>1014</ele>
        <time>2024-07-15T10:26:09Z</time>
      </trkpt>
      <trkpt lat="45.35335" lon="4.40439">
        <ele>1009</ele>
        <time>2024-07-15T10:25:37Z</time>
      </trkpt>
      <trkpt lat="45.35327" lon="4.40405">
        <ele>1007</ele>
        <time>2024-07-15T10:25:17Z</time>
      </trkpt>
      <trkpt lat="45.35326" lon="4.40381">
        <ele>1006</ele>
        <time>2024-07-15T10:25:04Z</time>
      </trkpt>
      <trkpt lat="45.35344" lon="4.40286">
        <ele>1000</ele>
        <time>2024-07-15T10:24:08Z</time>
      </trkpt>
      <trkpt lat="45.35351" lon="4.40119">
        <ele>990</ele>
        <time>2024-07-15T10:22:34Z</time>
      </trkpt>
      <trkpt lat="45.35353" lon="4.40054">
        <ele>989</ele>
        <time>2024-07-15T10:21:58Z</time>
      </trkpt>
      <trkpt lat="45.35372" lon="4.39986">
        <ele>989</ele>
        <time>2024-07-15T10:21:16Z</time>
      </trkpt>
      <trkpt lat="45.35366" lon="4.39848">
        <ele>986</ele>
        <time>2024-07-15T10:19:59Z</time>
      </trkpt>
      <trkpt lat="45.3537" lon="4.39689">
        <ele>975</ele>
        <time>2024-07-15T10:18:29Z</time>
      </trkpt>
      <trkpt lat="45.35389" lon="4.39614">
        <ele>972</ele>
        <time>2024-07-15T10:17:44Z</time>
      </trkpt>
      <trkpt lat="45.354" lon="4.39523">
        <ele>967</ele>
        <time>2024-07-15T10:16:52Z</time>
      </trkpt>
      <trkpt lat="45.35399" lon="4.39512">
        <ele>966</ele>
        <time>2024-07-15T10:16:46Z</time>
      </trkpt>
      <trkpt lat="45.35391" lon="4.39488">
        <ele>966</ele>
        <time>2024-07-15T10:16:31Z</time>
      </trkpt>
      <trkpt lat="45.35385" lon="4.39449">
        <ele>966</ele>
        <time>2024-07-15T10:16:09Z</time>
      </trkpt>
      <trkpt lat="45.35375" lon="4.39442">
        <ele>966</ele>
        <time>2024-07-15T10:16:00Z</time>
      </trkpt>
      <trkpt lat="45.35381" lon="4.39429">
        <ele>966</ele>
        <time>2024-07-15T10:15:51Z</time>
      </trkpt>
      <trkpt lat="45.35401" lon="4.39381">
        <ele>967</ele>
        <time>2024-07-15T10:15:20Z</time>
      </trkpt>
      <trkpt lat="45.3541" lon="4.39372">
        <ele>967</ele>
        <time>2024-07-15T10:15:11Z</time>
      </trkpt>
      <trkpt lat="45.35423" lon="4.39358">
        <ele>967</ele>
        <time>2024-07-15T10:14:58Z</time>
      </trkpt>
      <trkpt lat="45.3546" lon="4.39332">
        <ele>965</ele>
        <time>2024-07-15T10:14:25Z</time>
      </trkpt>
      <trkpt lat="45.35496" lon="4.39293">
        <ele>966</ele>
        <time>2024-07-15T10:13:48Z</time>
      </trkpt>
      <trkpt lat="45.35539" lon="4.39243">
        <ele>968</ele>
        <time>2024-07-15T10:13:04Z</time>
      </trkpt>
      <trkpt lat="45.35612" lon="4.3915">
        <ele>968</ele>
        <time>2024-07-15T10:11:46Z</time>
      </trkpt>
      <trkpt lat="45.35619" lon="4.39141">
        <ele>967</ele>
        <time>2024-07-15T10:11:38Z</time>
      </trkpt>
      <trkpt lat="45.35681" lon="4.39151">
        <ele>963</ele>
        <time>2024-07-15T10:10:48Z</time>
      </trkpt>
      <trkpt lat="45.35783" lon="4.39151">
        <ele>962</ele>
        <time>2024-07-15T10:09:26Z</time>
      </trkpt>
      <trkpt lat="45.35831" lon="4.39164">
        <ele>964</ele>
        <time>2024-07-15T10:08:47Z</time>
      </trkpt>
      <trkpt lat="45.35872" lon="4.39176">
        <ele>963</ele>
        <time>2024-07-15T10:08:14Z</time>
      </trkpt>
      <trkpt lat="45.35955" lon="4.39222">
        <ele>955</ele>
        <time>2024-07-15T10:07:02Z</time>
      </trkpt>
      <trkpt lat="45.36011" lon="4.39222">
        <ele>952</ele>
        <time>2024-07-15T10:06:18Z</time>
      </trkpt>
      <trkpt lat="45.36064" lon="4.39218">
        <ele>947</ele>
        <time>2024-07-15T10:05:35Z</time>
      </trkpt>
      <trkpt lat="45.36111" lon="4.39201">
        <ele>944</ele>
        <time>2024-07-15T10:04:56Z</time>
      </trkpt>
      <trkpt lat="45.3615" lon="4.39165">
        <ele>939</ele>
        <time>2024-07-15T10:04:19Z</time>
      </trkpt>
      <trkpt lat="45.3616" lon="4.39157">
        <ele>937</ele>
        <time>2024-07-15T10:04:10Z</time>
      </trkpt>
      <trkpt lat="45.36198" lon="4.39218">
        <ele>943</ele>
        <time>2024-07-15T10:03:24Z</time>
      </trkpt>
      <trkpt lat="45.36229" lon="4.39252">
        <ele>943</ele>
        <time>2024-07-15T10:02:53Z</time>
      </trkpt>
      <trkpt lat="45.36245" lon="4.39293">
        <ele>942</ele>
        <time>2024-07-15T10:02:26Z</time>
      </trkpt>
      <trkpt lat="45.3626" lon="4.39367">
        <ele>940</ele>
        <time>2024-07-15T10:01:43Z</time>
      </trkpt>
      <trkpt lat="45.36289" lon="4.39418">
        <ele>934</ele>
        <time>2024-07-15T10:01:06Z</time>
      </trkpt>
      <trkpt lat="45.36296" lon="4.39448">
        <ele>930</ele>
        <time>2024-07-15T10:00:48Z</time>
      </trkpt>
      <trkpt lat="45.36303" lon="4.39478">
        <ele>927</ele>
        <time>2024-07-15T10:00:30Z</time>
      </trkpt>
      <trkpt lat="45.36291" lon="4.3954">
        <ele>923</ele>
        <time>2024-07-15T09:59:54Z</time>
      </trkpt>
      <trkpt lat="45.36298" lon="4.39566">
        <ele>920</ele>
        <time>2024-07-15T09:59:39Z</time>
      </trkpt>
      <trkpt lat="45.36313" lon="4.3964">
        <ele>909</ele>
        <time>2024-07-15T09:58:55Z</time>
      </trkpt>
      <trkpt lat="45.36308" lon="4.39642">
        <ele>909</ele>
        <time>2024-07-15T09:58:51Z</time>
      </trkpt>
      <trkpt lat="45.36246" lon="4.39669">
        <ele>909</ele>
        <time>2024-07-15T09:57:59Z</time>
      </trkpt>
      <trkpt lat="45.36139" lon="4.39682">
        <ele>913</ele>
        <time>2024-07-15T09:56:33Z</time>
      </trkpt>
      <trkpt lat="45.36072" lon="4.3968">
        <ele>911</ele>
        <time>2024-07-15T09:55:40Z</time>
      </trkpt>
      <trkpt lat="45.36037" lon="4.39667">
        <ele>911</ele>
        <time>2024-07-15T09:55:11Z</time>
      </trkpt>
      <trkpt lat="45.3602" lon="4.39666">
        <ele>910</ele>
        <time>2024-07-15T09:54:57Z</time>
      </trkpt>
      <trkpt lat="45.36017" lon="4.39678">
        <ele>909</ele>
        <time>2024-07-15T09:54:50Z</time>
      </trkpt>
      <trkpt lat="45.3602" lon="4.39682">
        <ele>909</ele>
        <time>2024-07-15T09:54:46Z</time>
      </trkpt>
      <trkpt lat="45.36023" lon="4.39687">
        <ele>908</ele>
        <time>2024-07-15T09:54:43Z</time>
      </trkpt>
      <trkpt lat="45.36089" lon="4.39707">
        <ele>906</ele>
        <time>2024-07-15T09:53:49Z</time>
      </trkpt>
      <trkpt lat="45.36121" lon="4.3972">
        <ele>905</ele>
        <time>2024-07-15T09:53:22Z</time>
      </trkpt>
      <trkpt lat="45.36153" lon="4.39769">
        <ele>898</ele>
        <time>2024-07-15T09:52:44Z</time>
      </trkpt>
      <trkpt lat="45.36187" lon="4.3979">
        <ele>895</ele>
        <time>2024-07-15T09:52:15Z</time>
      </trkpt>
      <trkpt lat="45.36232" lon="4.39811">
        <ele>891</ele>
        <time>2024-07-15T09:51:37Z</time>
      </trkpt>
      <trkpt lat="45.36244" lon="4.39825">
        <ele>889</ele>
        <time>2024-07-15T09:51:24Z</time>
      </trkpt>
      <trkpt lat="45.36271" lon="4.39858">
        <ele>886</ele>
        <time>2024-07-15T09:50:56Z</time>
      </trkpt>
      <trkpt lat="45.36349" lon="4.39977">
        <ele>876</ele>
        <time>2024-07-15T09:49:24Z</time>
      </trkpt>
      <trkpt lat="45.364" lon="4.40007">
        <ele>872</ele>
        <time>2024-07-15T09:48:40Z</time>
      </trkpt>
      <trkpt lat="45.3642" lon="4.39998">
        <ele>874</ele>
        <time>2024-07-15T09:48:23Z</time>
      </trkpt>
      <trkpt lat="45.36443" lon="4.39988">
        <ele>872</ele>
        <time>2024-07-15T09:48:04Z</time>
      </trkpt>
      <trkpt lat="45.36497" lon="4.39911">
        <ele>874</ele>
        <time>2024-07-15T09:47:03Z</time>
      </trkpt>
      <trkpt lat="45.36514" lon="4.39883">
        <ele>876</ele>
        <time>2024-07-15T09:46:42Z</time>
      </trkpt>
      <trkpt lat="45.36525" lon="4.39841">
        <ele>881</ele>
        <time>2024-07-15T09:46:17Z</time>
      </trkpt>
      <trkpt lat="45.36549" lon="4.39845">
        <ele>877</ele>
        <time>2024-07-15T09:45:58Z</time>
      </trkpt>
      <trkpt lat="45.36565" lon="4.39876">
        <ele>869</ele>
        <time>2024-07-15T09:45:36Z</time>
      </trkpt>
      <trkpt lat="45.36601" lon="4.39939">
        <ele>853</ele>
        <time>2024-07-15T09:44:50Z</time>
      </trkpt>
      <trkpt lat="45.36669" lon="4.39966">
        <ele>841</ele>
        <time>2024-07-15T09:43:54Z</time>
      </trkpt>
      <trkpt lat="45.36699" lon="4.39975">
        <ele>837</ele>
        <time>2024-07-15T09:43:29Z</time>
      </trkpt>
      <trkpt lat="45.36728" lon="4.39951">
        <ele>837</ele>
        <time>2024-07-15T09:43:02Z</time>
      </trkpt>
      <trkpt lat="45.36732" lon="4.39943">
        <ele>838</ele>
        <time>2024-07-15T09:42:57Z</time>
      </trkpt>
      <trkpt lat="45.36739" lon="4.3993">
        <ele>839</ele>
        <time>2024-07-15T09:42:48Z</time>
      </trkpt>
      <trkpt lat="45.3677" lon="4.39818">
        <ele>847</ele>
        <time>2024-07-15T09:41:40Z</time>
      </trkpt>
      <trkpt lat="45.36788" lon="4.39742">
        <ele>853</ele>
        <time>2024-07-15T09:40:55Z</time>
      </trkpt>
      <trkpt lat="45.36794" lon="4.39624">
        <ele>866</ele>
        <time>2024-07-15T09:39:48Z</time>
      </trkpt>
      <trkpt lat="45.36787" lon="4.3959">
        <ele>871</ele>
        <time>2024-07-15T09:39:28Z</time>
      </trkpt>
      <trkpt lat="45.36741" lon="4.39405">
        <ele>881</ele>
        <time>2024-07-15T09:37:38Z</time>
      </trkpt>
      <trkpt lat="45.36746" lon="4.39374">
        <ele>879</ele>
        <time>2024-07-15T09:37:20Z</time>
      </trkpt>
      <trkpt lat="45.3675" lon="4.39345">
        <ele>878</ele>
        <time>2024-07-15T09:37:03Z</time>
      </trkpt>
      <trkpt lat="45.36743" lon="4.39206">
        <ele>865</ele>
        <time>2024-07-15T09:35:45Z</time>
      </trkpt>
      <trkpt lat="45.36723" lon="4.39181">
        <ele>868</ele>
        <time>2024-07-15T09:35:24Z</time>
      </trkpt>
      <trkpt lat="45.36714" lon="4.39164">
        <ele>870</ele>
        <time>2024-07-15T09:35:12Z</time>
      </trkpt>
      <trkpt lat="45.36711" lon="4.39156">
        <ele>872</ele>
        <time>2024-07-15T09:35:07Z</time>
      </trkpt>
      <trkpt lat="45.36719" lon="4.39131">
        <ele>873</ele>
        <time>2024-07-15T09:34:51Z</time>
      </trkpt>
      <trkpt lat="45.36751" lon="4.39056">
        <ele>876</ele>
        <time>2024-07-15T09:34:02Z</time>
      </trkpt>
      <trkpt lat="45.36788" lon="4.38975">
        <ele>880</ele>
        <time>2024-07-15T09:33:07Z</time>
      </trkpt>
      <trkpt lat="45.36801" lon="4.38951">
        <ele>881</ele>
        <time>2024-07-15T09:32:50Z</time>
      </trkpt>
      <trkpt lat="45.3683" lon="4.38912">
        <ele>880</ele>
        <time>2024-07-15T09:32:18Z</time>
      </trkpt>
      <trkpt lat="45.36838" lon="4.38887">
        <ele>882</ele>
        <time>2024-07-15T09:32:03Z</time>
      </trkpt>
      <trkpt lat="45.3684" lon="4.3885">
        <ele>886</ele>
        <time>2024-07-15T09:31:42Z</time>
      </trkpt>
      <trkpt lat="45.36837" lon="4.38807">
        <ele>888</ele>
        <time>2024-07-15T09:31:18Z</time>
      </trkpt>
      <trkpt lat="45.36826" lon="4.38779">
        <ele>890</ele>
        <time>2024-07-15T09:31:00Z</time>
      </trkpt>
      <trkpt lat="45.36821" lon="4.38765">
        <ele>891</ele>
        <time>2024-07-15T09:30:51Z</time>
      </trkpt>
      <trkpt lat="45.36798" lon="4.38688">
        <ele>893</ele>
        <time>2024-07-15T09:30:04Z</time>
      </trkpt>
      <trkpt lat="45.36783" lon="4.38662">
        <ele>895</ele>
        <time>2024-07-15T09:29:45Z</time>
      </trkpt>
      <trkpt lat="45.36763" lon="4.3865">
        <ele>896</ele>
        <time>2024-07-15T09:29:28Z</time>
      </trkpt>
      <trkpt lat="45.36731" lon="4.38635">
        <ele>897</ele>
        <time>2024-07-15T09:29:01Z</time>
      </trkpt>
      <trkpt lat="45.36702" lon="4.38602">
        <ele>896</ele>
        <time>2024-07-15T09:28:31Z</time>
      </trkpt>
      <trkpt lat="45.36681" lon="4.38574">
        <ele>895</ele>
        <time>2024-07-15T09:28:08Z</time>
      </trkpt>
      <trkpt lat="45.36642" lon="4.38538">
        <ele>893</ele>
        <time>2024-07-15T09:27:31Z</time>
      </trkpt>
      <trkpt lat="45.36619" lon="4.38504">
        <ele>889</ele>
        <time>2024-07-15T09:27:04Z</time>
      </trkpt>
      <trkpt lat="45.36614" lon="4.38498">
        <ele>888</ele>
        <time>2024-07-15T09:26:59Z</time>
      </trkpt>
      <trkpt lat="45.36604" lon="4.38493">
        <ele>887</ele>
        <time>2024-07-15T09:26:50Z</time>
      </trkpt>
      <trkpt lat="45.36582" lon="4.38495">
        <ele>887</ele>
        <time>2024-07-15T09:26:33Z</time>
      </trkpt>
      <trkpt lat="45.3656" lon="4.38503">
        <ele>888</ele>
        <time>2024-07-15T09:26:15Z</time>
      </trkpt>
      <trkpt lat="45.36535" lon="4.38495">
        <ele>887</ele>
        <time>2024-07-15T09:25:54Z</time>
      </trkpt>
      <trkpt lat="45.3651" lon="4.38473">
        <ele>884</ele>
        <time>2024-07-15T09:25:30Z</time>
      </trkpt>
      <trkpt lat="45.36481" lon="4.38439">
        <ele>880</ele>
        <time>2024-07-15T09:25:00Z</time>
      </trkpt>
      <trkpt lat="45.36442" lon="4.38398">
        <ele>880</ele>
        <time>2024-07-15T09:24:22Z</time>
      </trkpt>
      <trkpt lat="45.36439" lon="4.38397">
        <ele>880</ele>
        <time>2024-07-15T09:24:19Z</time>
      </trkpt>
      <trkpt lat="45.36442" lon="4.38398">
        <ele>880</ele>
        <time>2024-07-15T09:24:17Z</time>
      </trkpt>
      <trkpt lat="45.36429" lon="4.38342">
        <ele>878</ele>
        <time>2024-07-15T09:23:43Z</time>
      </trkpt>
      <trkpt lat="45.36408" lon="4.38285">
        <ele>876</ele>
        <time>2024-07-15T09:23:07Z</time>
      </trkpt>
      <trkpt lat="45.36383" lon="4.38244">
        <ele>875</ele>
        <time>2024-07-15T09:22:37Z</time>
      </trkpt>
      <trkpt lat="45.36379" lon="4.38223">
        <ele>876</ele>
        <time>2024-07-15T09:22:24Z</time>
      </trkpt>
      <trkpt lat="45.36371" lon="4.38169">
        <ele>878</ele>
        <time>2024-07-15T09:21:53Z</time>
      </trkpt>
      <trkpt lat="45.36344" lon="4.38096">
        <ele>886</ele>
        <time>2024-07-15T09:21:07Z</time>
      </trkpt>
      <trkpt lat="45.36315" lon="4.38028">
        <ele>890</ele>
        <time>2024-07-15T09:20:22Z</time>
      </trkpt>
      <trkpt lat="45.36289" lon="4.3799">
        <ele>893</ele>
        <time>2024-07-15T09:19:52Z</time>
      </trkpt>
      <trkpt lat="45.36251" lon="4.37949">
        <ele>895</ele>
        <time>2024-07-15T09:19:14Z</time>
      </trkpt>
      <trkpt lat="45.36223" lon="4.37928">
        <ele>897</ele>
        <time>2024-07-15T09:18:49Z</time>
      </trkpt>
      <trkpt lat="45.36218" lon="4.37915">
        <ele>896</ele>
        <time>2024-07-15T09:18:41Z</time>
      </trkpt>
      <trkpt lat="45.36216" lon="4.37919">
        <ele>897</ele>
        <time>2024-07-15T09:18:38Z</time>
      </trkpt>
      <trkpt lat="45.36178" lon="4.37824">
        <ele>889</ele>
        <time>2024-07-15T09:17:36Z</time>
      </trkpt>
      <trkpt lat="45.36186" lon="4.37685">
        <ele>877</ele>
        <time>2024-07-15T09:16:18Z</time>
      </trkpt>
      <trkpt lat="45.3617" lon="4.37507">
        <ele>860</ele>
        <time>2024-07-15T09:14:37Z</time>
      </trkpt>
      <trkpt lat="45.36114" lon="4.37526">
        <ele>860</ele>
        <time>2024-07-15T09:13:51Z</time>
      </trkpt>
      <trkpt lat="45.36096" lon="4.37541">
        <ele>861</ele>
        <time>2024-07-15T09:13:34Z</time>
      </trkpt>
      <trkpt lat="45.36068" lon="4.37575">
        <ele>864</ele>
        <time>2024-07-15T09:13:05Z</time>
      </trkpt>
      <trkpt lat="45.36057" lon="4.37586">
        <ele>866</ele>
        <time>2024-07-15T09:12:54Z</time>
      </trkpt>
      <trkpt lat="45.36048" lon="4.37587">
        <ele>866</ele>
        <time>2024-07-15T09:12:47Z</time>
      </trkpt>
      <trkpt lat="45.36047" lon="4.37585">
        <ele>866</ele>
        <time>2024-07-15T09:12:45Z</time>
      </trkpt>
      <trkpt lat="45.36048" lon="4.37587">
        <ele>866</ele>
        <time>2024-07-15T09:12:44Z</time>
      </trkpt>
      <trkpt lat="45.36022" lon="4.37584">
        <ele>868</ele>
        <time>2024-07-15T09:12:23Z</time>
      </trkpt>
      <trkpt lat="45.35982" lon="4.37585">
        <ele>871</ele>
        <time>2024-07-15T09:11:51Z</time>
      </trkpt>
      <trkpt lat="45.35927" lon="4.37594">
        <ele>876</ele>
        <time>2024-07-15T09:11:07Z</time>
      </trkpt>
      <trkpt lat="45.35901" lon="4.37604">
        <ele>878</ele>
        <time>2024-07-15T09:10:45Z</time>
      </trkpt>
      <trkpt lat="45.35879" lon="4.37621">
        <ele>878</ele>
        <time>2024-07-15T09:10:25Z</time>
        <extensions>
          <visugpx:TrkExtension xmlns:visugpx="https://www.visugpx.com/editgpx/">
            <visugpx:node>16</visugpx:node>
            </visugpx:TrkExtension>
        </extensions>
      </trkpt>
      <trkpt lat="45.35872" lon="4.37625">
        <ele>879.5</ele>
      </trkpt>
      <trkpt lat="45.35865" lon="4.3763">
        <ele>879.7</ele>
      </trkpt>
      <trkpt lat="45.35857" lon="4.37635">
        <ele>879.9</ele>
      </trkpt>
      <trkpt lat="45.35852" lon="4.37636">
        <ele>879.9</ele>
      </trkpt>
      <trkpt lat="45.35838" lon="4.37641">
        <ele>880.1</ele>
      </trkpt>
      <trkpt lat="45.35834" lon="4.37645">
        <ele>880.2</ele>
      </trkpt>
      <trkpt lat="45.35832" lon="4.3765">
        <ele>880.2</ele>
      </trkpt>
      <trkpt lat="45.35826" lon="4.37667">
        <ele>880.2</ele>
      </trkpt>
      <trkpt lat="45.35824" lon="4.37669">
        <ele>880.1</ele>
      </trkpt>
      <trkpt lat="45.3582" lon="4.37674">
        <ele>880</ele>
      </trkpt>
      <trkpt lat="45.35816" lon="4.37678">
        <ele>879.7</ele>
      </trkpt>
      <trkpt lat="45.35812" lon="4.37684">
        <ele>879.5</ele>
      </trkpt>
      <trkpt lat="45.35809" lon="4.3769">
        <ele>879.3</ele>
      </trkpt>
      <trkpt lat="45.35806" lon="4.37697">
        <ele>879.2</ele>
      </trkpt>
      <trkpt lat="45.35805" lon="4.37689">
        <ele>878.6</ele>
        <extensions>
          <visugpx:TrkExtension xmlns:visugpx="https://www.visugpx.com/editgpx/">
            <visugpx:node>17</visugpx:node>
            </visugpx:TrkExtension>
        </extensions>
      </trkpt>
      <trkpt lat="45.35805" lon="4.37689">
        <ele>878.6</ele>
        <extensions>
          <visugpx:TrkExtension xmlns:visugpx="https://www.visugpx.com/editgpx/">
            <visugpx:node>18</visugpx:node>
            </visugpx:TrkExtension>
        </extensions>
      </trkpt>
    </trkseg>
  </trk>
</gpx>